Time,TemperatureF,DewpointF,PressureIn,WindDirection,WindDirectionDegrees,WindSpeedMPH,WindSpeedGustMPH,Humidity,HourlyPrecipIn,Conditions,Clouds,dailyrainin,SoftwareType,DateUTC
2013-06-11 00:00:00,73.0,68.6,29.68,SE,141,6.3,6.3,86,0.12,,---,0.00,VWS V14.01,2013-06-11 04:00:00,
2013-06-11 00:01:00,73.0,68.6,29.68,SE,129,3.1,8.3,86,0.12,,---,0.00,VWS V14.01,2013-06-11 04:01:00,
2013-06-11 00:02:00,73.0,68.6,29.68,ENE,71,0.0,2.7,86,0.12,,---,0.00,VWS V14.01,2013-06-11 04:02:00,
2013-06-11 00:06:00,72.9,68.4,29.68,SE,146,2.7,3.1,86,0.12,,---,0.00,VWS V14.01,2013-06-11 04:06:00,
2013-06-11 00:07:00,72.9,68.4,29.68,ENE,73,3.1,6.3,86,0.12,,---,0.00,VWS V14.01,2013-06-11 04:07:00,
2013-06-11 00:11:00,72.9,68.4,29.68,South,185,3.1,4.0,86,0.12,,---,0.00,VWS V14.01,2013-06-11 04:11:00,
2013-06-11 00:12:00,72.9,68.4,29.68,East,101,0.0,5.4,86,0.12,,---,0.00,VWS V14.01,2013-06-11 04:12:00,
2013-06-11 00:16:00,72.9,68.4,29.68,ESE,115,4.9,4.9,86,0.12,,---,0.00,VWS V14.01,2013-06-11 04:16:00,
2013-06-11 00:17:00,72.9,68.4,29.68,ESE,106,2.7,5.8,86,0.12,,---,0.00,VWS V14.01,2013-06-11 04:17:00,
2013-06-11 00:18:00,72.9,68.4,29.68,East,87,4.0,4.9,86,0.12,,---,0.00,VWS V14.01,2013-06-11 04:18:00,
2013-06-11 00:21:00,72.9,68.4,29.68,SSE,153,0.0,0.0,86,0.08,,---,0.00,VWS V14.01,2013-06-11 04:21:00,
2013-06-11 00:22:00,72.9,68.4,29.68,SSE,153,0.0,0.0,86,0.08,,---,0.00,VWS V14.01,2013-06-11 04:22:00,
2013-06-11 00:23:00,72.9,68.4,29.68,SSE,153,0.0,0.0,86,0.08,,---,0.00,VWS V14.01,2013-06-11 04:23:00,
2013-06-11 00:27:00,72.9,68.4,29.68,SE,132,3.1,3.1,86,0.08,,---,0.00,VWS V14.01,2013-06-11 04:27:00,
2013-06-11 00:28:00,72.9,68.4,29.68,SE,132,3.6,3.6,86,0.08,,---,0.00,VWS V14.01,2013-06-11 04:28:00,
2013-06-11 00:32:00,73.0,68.9,29.68,SE,126,3.6,4.0,87,0.08,,---,0.00,VWS V14.01,2013-06-11 04:32:00,
2013-06-11 00:33:00,73.0,68.9,29.68,SSE,154,2.7,4.0,87,0.08,,---,0.00,VWS V14.01,2013-06-11 04:33:00,
2013-06-11 00:37:00,73.0,68.9,29.68,SSE,153,0.0,0.0,87,0.08,,---,0.00,VWS V14.01,2013-06-11 04:37:00,
2013-06-11 00:38:00,73.0,68.9,29.68,SSE,153,0.0,0.0,87,0.08,,---,0.00,VWS V14.01,2013-06-11 04:38:00,
2013-06-11 00:42:00,73.0,68.9,29.68,ESE,119,2.2,3.6,87,0.08,,---,0.00,VWS V14.01,2013-06-11 04:42:00,
2013-06-11 00:43:00,73.0,68.9,29.68,SE,126,2.2,3.6,87,0.08,,---,0.00,VWS V14.01,2013-06-11 04:43:00,
2013-06-11 00:47:00,73.2,69.1,29.68,SSE,151,3.1,5.8,87,0.00,,---,0.00,VWS V14.01,2013-06-11 04:47:00,
2013-06-11 00:48:00,73.2,69.1,29.68,SSE,151,3.1,5.8,87,0.00,,---,0.00,VWS V14.01,2013-06-11 04:48:00,
2013-06-11 00:53:00,73.2,69.1,29.68,East,91,0.0,4.0,87,0.00,,---,0.00,VWS V14.01,2013-06-11 04:53:00,
2013-06-11 00:58:00,73.4,69.3,29.68,SSE,163,6.3,11.0,87,0.00,,---,0.00,VWS V14.01,2013-06-11 04:58:00,
2013-06-11 01:03:00,73.4,69.3,29.68,ESE,116,0.0,3.1,87,0.00,,---,0.00,VWS V14.01,2013-06-11 05:03:00,
2013-06-11 01:04:00,73.4,69.3,29.68,East,86,4.0,4.0,87,0.00,,---,0.00,VWS V14.01,2013-06-11 05:04:00,
2013-06-11 01:08:00,73.2,69.1,29.65,ESE,122,3.6,3.6,87,0.00,,---,0.00,VWS V14.01,2013-06-11 05:08:00,
2013-06-11 01:09:00,73.2,69.1,29.65,SE,138,3.6,3.6,87,0.00,,---,0.00,VWS V14.01,2013-06-11 05:09:00,
2013-06-11 01:13:00,73.2,69.1,29.65,SSE,162,0.0,0.0,87,0.00,,---,0.00,VWS V14.01,2013-06-11 05:13:00,
2013-06-11 01:14:00,73.2,69.1,29.65,SSE,162,2.2,2.7,87,0.00,,---,0.00,VWS V14.01,2013-06-11 05:14:00,
2013-06-11 01:18:00,73.0,68.9,29.65,SE,137,4.9,4.9,87,0.00,,---,0.00,VWS V14.01,2013-06-11 05:18:00,
2013-06-11 01:19:00,73.0,68.9,29.65,SW,236,2.2,6.3,87,0.00,,---,0.00,VWS V14.01,2013-06-11 05:19:00,
2013-06-11 01:23:00,73.0,68.9,29.65,East,99,0.0,2.2,87,0.00,,---,0.00,VWS V14.01,2013-06-11 05:23:00,
2013-06-11 01:24:00,73.0,68.9,29.65,ESE,109,2.2,2.2,87,0.00,,---,0.00,VWS V14.01,2013-06-11 05:24:00,
2013-06-11 01:29:00,73.0,68.6,29.65,SE,144,2.2,2.2,86,0.00,,---,0.00,VWS V14.01,2013-06-11 05:29:00,
2013-06-11 01:34:00,73.0,68.6,29.65,ESE,113,2.2,2.2,86,0.00,,---,0.00,VWS V14.01,2013-06-11 05:34:00,
2013-06-11 01:35:00,73.0,68.6,29.65,ESE,113,0.0,3.1,86,0.00,,---,0.00,VWS V14.01,2013-06-11 05:35:00,
2013-06-11 01:39:00,72.9,68.4,29.65,ESE,114,0.0,0.0,86,0.00,,---,0.00,VWS V14.01,2013-06-11 05:39:00,
2013-06-11 01:40:00,72.9,68.4,29.65,SSE,149,4.9,4.9,86,0.00,,---,0.00,VWS V14.01,2013-06-11 05:40:00,
2013-06-11 01:44:00,72.9,68.4,29.65,SSE,155,0.0,3.1,86,0.00,,---,0.00,VWS V14.01,2013-06-11 05:44:00,
2013-06-11 01:45:00,72.9,68.4,29.65,SSE,155,0.0,3.1,86,0.00,,---,0.00,VWS V14.01,2013-06-11 05:45:00,
2013-06-11 01:49:00,72.7,67.9,29.65,South,170,0.0,0.0,85,0.00,,---,0.00,VWS V14.01,2013-06-11 05:49:00,
2013-06-11 01:50:00,72.7,67.9,29.65,South,170,0.0,0.0,85,0.00,,---,0.00,VWS V14.01,2013-06-11 05:50:00,
2013-06-11 01:51:00,72.7,67.9,29.65,South,170,0.0,0.0,85,0.00,,---,0.00,VWS V14.01,2013-06-11 05:51:00,
2013-06-11 01:54:00,72.7,67.9,29.65,SSE,148,2.2,2.7,85,0.00,,---,0.00,VWS V14.01,2013-06-11 05:54:00,
2013-06-11 01:56:00,72.7,67.9,29.65,SE,127,0.0,0.0,85,0.00,,---,0.00,VWS V14.01,2013-06-11 05:56:00,
2013-06-11 01:59:00,72.7,67.9,29.65,ESE,110,2.7,2.7,85,0.00,,---,0.00,VWS V14.01,2013-06-11 05:59:00,
2013-06-11 02:00:00,72.7,67.9,29.65,ESE,119,0.0,0.0,85,0.00,,---,0.00,VWS V14.01,2013-06-11 06:00:00,
2013-06-11 02:01:00,72.7,67.9,29.65,ESE,119,2.7,2.7,85,0.00,,---,0.00,VWS V14.01,2013-06-11 06:01:00,
2013-06-11 02:04:00,72.5,67.7,29.65,ESE,119,0.0,0.0,85,0.00,,---,0.00,VWS V14.01,2013-06-11 06:04:00,
2013-06-11 02:05:00,72.5,67.7,29.65,ESE,119,0.0,0.0,85,0.00,,---,0.00,VWS V14.01,2013-06-11 06:05:00,
2013-06-11 02:07:00,72.5,67.7,29.65,ESE,119,0.0,0.0,85,0.00,,---,0.00,VWS V14.01,2013-06-11 06:07:00,
2013-06-11 02:09:00,72.5,67.7,29.65,ESE,116,0.0,2.7,85,0.00,,---,0.00,VWS V14.01,2013-06-11 06:09:00,
2013-06-11 02:10:00,72.5,67.7,29.65,East,93,2.7,3.1,85,0.00,,---,0.00,VWS V14.01,2013-06-11 06:10:00,
2013-06-11 02:12:00,72.3,67.6,29.65,East,93,0.0,0.0,85,0.00,,---,0.00,VWS V14.01,2013-06-11 06:12:00,
2013-06-11 02:15:00,72.3,67.6,29.65,East,89,0.0,2.2,85,0.00,,---,0.00,VWS V14.01,2013-06-11 06:15:00,
2013-06-11 02:17:00,72.3,67.6,29.65,East,95,3.1,5.8,85,0.00,,---,0.00,VWS V14.01,2013-06-11 06:17:00,
2013-06-11 02:20:00,72.3,67.6,29.65,ESE,117,0.0,0.0,85,0.00,,---,0.00,VWS V14.01,2013-06-11 06:20:00,
2013-06-11 02:21:00,72.1,67.4,29.65,South,180,0.0,2.7,85,0.00,,---,0.00,VWS V14.01,2013-06-11 06:21:00,
2013-06-11 02:22:00,72.1,67.4,29.65,South,180,0.0,2.7,85,0.00,,---,0.00,VWS V14.01,2013-06-11 06:22:00,
2013-06-11 02:25:00,72.1,67.4,29.65,SSE,158,0.0,2.2,85,0.00,,---,0.00,VWS V14.01,2013-06-11 06:25:00,
2013-06-11 02:26:00,72.1,67.4,29.65,ESE,114,3.1,3.6,85,0.00,,---,0.00,VWS V14.01,2013-06-11 06:26:00,
2013-06-11 02:27:00,72.1,67.4,29.65,ESE,114,2.2,2.2,85,0.00,,---,0.00,VWS V14.01,2013-06-11 06:27:00,
2013-06-11 02:30:00,72.1,67.4,29.65,SSE,148,3.1,3.1,85,0.00,,---,0.00,VWS V14.01,2013-06-11 06:30:00,
2013-06-11 02:31:00,72.1,67.4,29.65,SE,128,0.0,3.1,85,0.00,,---,0.00,VWS V14.01,2013-06-11 06:31:00,
2013-06-11 02:32:00,72.1,67.4,29.65,SE,128,0.0,3.1,85,0.00,,---,0.00,VWS V14.01,2013-06-11 06:32:00,
2013-06-11 02:35:00,72.1,67.4,29.65,SE,126,0.0,2.7,85,0.00,,---,0.00,VWS V14.01,2013-06-11 06:35:00,
2013-06-11 02:36:00,72.1,67.4,29.65,SE,138,0.0,3.6,85,0.00,,---,0.00,VWS V14.01,2013-06-11 06:36:00,
2013-06-11 02:37:00,72.1,67.4,29.65,SE,138,2.7,2.7,85,0.00,,---,0.00,VWS V14.01,2013-06-11 06:37:00,
2013-06-11 02:38:00,72.1,67.4,29.65,SE,136,3.1,3.1,85,0.00,,---,0.00,VWS V14.01,2013-06-11 06:38:00,
2013-06-11 02:40:00,72.1,67.4,29.65,SE,136,0.0,0.0,85,0.00,,---,0.00,VWS V14.01,2013-06-11 06:40:00,
2013-06-11 02:41:00,72.1,67.4,29.65,SE,136,0.0,0.0,85,0.00,,---,0.00,VWS V14.01,2013-06-11 06:41:00,
2013-06-11 02:42:00,72.1,67.4,29.65,SE,136,0.0,0.0,85,0.00,,---,0.00,VWS V14.01,2013-06-11 06:42:00,
2013-06-11 02:43:00,72.1,67.4,29.65,ESE,105,0.0,0.0,85,0.00,,---,0.00,VWS V14.01,2013-06-11 06:43:00,
2013-06-11 02:45:00,72.1,67.4,29.65,ESE,105,0.0,0.0,85,0.00,,---,0.00,VWS V14.01,2013-06-11 06:45:00,
2013-06-11 02:47:00,72.1,67.4,29.65,ESE,105,0.0,0.0,85,0.00,,---,0.00,VWS V14.01,2013-06-11 06:47:00,
2013-06-11 02:48:00,72.1,67.4,29.65,East,80,2.7,2.7,85,0.00,,---,0.00,VWS V14.01,2013-06-11 06:48:00,
2013-06-11 02:51:00,72.1,67.4,29.65,East,87,0.0,0.0,85,0.00,,---,0.00,VWS V14.01,2013-06-11 06:51:00,
2013-06-11 02:52:00,72.1,67.4,29.65,East,87,0.0,0.0,85,0.00,,---,0.00,VWS V14.01,2013-06-11 06:52:00,
2013-06-11 02:53:00,72.1,67.4,29.65,East,87,0.0,0.0,85,0.00,,---,0.00,VWS V14.01,2013-06-11 06:53:00,
2013-06-11 02:56:00,72.1,67.4,29.65,SSE,150,0.0,0.0,85,0.00,,---,0.00,VWS V14.01,2013-06-11 06:56:00,
2013-06-11 02:57:00,72.1,67.4,29.65,SSE,150,0.0,0.0,85,0.00,,---,0.00,VWS V14.01,2013-06-11 06:57:00,
2013-06-11 02:58:00,72.3,67.6,29.65,SSE,150,0.0,0.0,85,0.00,,---,0.00,VWS V14.01,2013-06-11 06:58:00,
2013-06-11 02:59:00,72.3,67.6,29.65,SSE,150,0.0,0.0,85,0.00,,---,0.00,VWS V14.01,2013-06-11 06:59:00,
2013-06-11 03:01:00,72.3,67.6,29.65,SSE,150,0.0,0.0,85,0.00,,---,0.00,VWS V14.01,2013-06-11 07:01:00,
2013-06-11 03:02:00,72.3,67.6,29.65,ESE,111,2.7,3.1,85,0.00,,---,0.00,VWS V14.01,2013-06-11 07:02:00,
2013-06-11 03:04:00,72.3,67.6,29.65,ESE,111,0.0,0.0,85,0.00,,---,0.00,VWS V14.01,2013-06-11 07:04:00,
2013-06-11 03:06:00,72.3,67.6,29.65,SE,133,0.0,0.0,85,0.00,,---,0.00,VWS V14.01,2013-06-11 07:06:00,
2013-06-11 03:07:00,72.3,67.9,29.65,SE,133,0.0,0.0,86,0.00,,---,0.00,VWS V14.01,2013-06-11 07:07:00,
2013-06-11 03:08:00,72.3,67.9,29.65,East,85,2.2,2.7,86,0.00,,---,0.00,VWS V14.01,2013-06-11 07:08:00,
2013-06-11 03:09:00,72.5,68.1,29.65,East,91,2.7,2.7,86,0.00,,---,0.00,VWS V14.01,2013-06-11 07:09:00,
2013-06-11 03:11:00,72.5,68.1,29.65,ENE,64,0.0,0.0,86,0.00,,---,0.00,VWS V14.01,2013-06-11 07:11:00,
2013-06-11 03:12:00,72.5,68.1,29.65,ENE,64,0.0,0.0,86,0.00,,---,0.00,VWS V14.01,2013-06-11 07:12:00,
2013-06-11 03:13:00,72.5,68.1,29.65,ENE,64,0.0,0.0,86,0.00,,---,0.00,VWS V14.01,2013-06-11 07:13:00,
2013-06-11 03:14:00,72.5,68.1,29.65,ENE,64,0.0,0.0,86,0.00,,---,0.00,VWS V14.01,2013-06-11 07:14:00,
2013-06-11 03:16:00,72.5,68.1,29.65,ENE,64,0.0,0.0,86,0.00,,---,0.00,VWS V14.01,2013-06-11 07:16:00,
2013-06-11 03:18:00,72.5,68.1,29.65,ENE,64,0.0,0.0,86,0.00,,---,0.00,VWS V14.01,2013-06-11 07:18:00,
2013-06-11 03:19:00,72.5,68.1,29.65,ENE,64,0.0,0.0,86,0.00,,---,0.00,VWS V14.01,2013-06-11 07:19:00,
2013-06-11 03:21:00,72.5,68.1,29.65,ENE,64,0.0,0.0,86,0.00,,---,0.00,VWS V14.01,2013-06-11 07:21:00,
2013-06-11 03:23:00,72.5,68.1,29.65,ENE,64,0.0,0.0,86,0.00,,---,0.00,VWS V14.01,2013-06-11 07:23:00,
2013-06-11 03:24:00,72.5,68.1,29.65,ENE,64,0.0,0.0,86,0.00,,---,0.00,VWS V14.01,2013-06-11 07:24:00,
2013-06-11 03:27:00,72.5,68.1,29.65,ENE,64,0.0,0.0,86,0.00,,---,0.00,VWS V14.01,2013-06-11 07:27:00,
2013-06-11 03:28:00,72.7,68.3,29.65,ENE,64,0.0,0.0,86,0.00,,---,0.00,VWS V14.01,2013-06-11 07:28:00,
2013-06-11 03:29:00,72.7,68.3,29.65,ENE,64,0.0,0.0,86,0.00,,---,0.00,VWS V14.01,2013-06-11 07:29:00,
2013-06-11 03:31:00,72.7,68.3,29.65,NW,305,0.0,0.0,86,0.00,,---,0.00,VWS V14.01,2013-06-11 07:31:00,
2013-06-11 03:33:00,72.7,68.3,29.65,NW,305,0.0,0.0,86,0.00,,---,0.00,VWS V14.01,2013-06-11 07:33:00,
2013-06-11 03:34:00,72.7,68.3,29.65,NW,305,0.0,0.0,86,0.00,,---,0.00,VWS V14.01,2013-06-11 07:34:00,
2013-06-11 03:35:00,72.7,68.3,29.65,NW,305,0.0,0.0,86,0.00,,---,0.00,VWS V14.01,2013-06-11 07:35:00,
2013-06-11 03:37:00,72.7,68.3,29.65,NW,317,0.0,0.0,86,0.00,,---,0.00,VWS V14.01,2013-06-11 07:37:00,
2013-06-11 03:38:00,72.7,68.3,29.65,NW,317,0.0,0.0,86,0.00,,---,0.00,VWS V14.01,2013-06-11 07:38:00,
2013-06-11 03:39:00,72.7,68.3,29.65,NW,317,0.0,0.0,86,0.00,,---,0.00,VWS V14.01,2013-06-11 07:39:00,
2013-06-11 03:40:00,72.7,68.3,29.65,NNE,29,0.0,0.0,86,0.00,,---,0.00,VWS V14.01,2013-06-11 07:40:00,
2013-06-11 03:42:00,72.7,68.3,29.65,NNE,29,0.0,0.0,86,0.00,,---,0.00,VWS V14.01,2013-06-11 07:42:00,
2013-06-11 03:43:00,72.7,68.3,29.65,East,101,0.0,0.0,86,0.00,,---,0.00,VWS V14.01,2013-06-11 07:43:00,
2013-06-11 03:44:00,72.7,68.3,29.65,East,101,0.0,0.0,86,0.00,,---,0.00,VWS V14.01,2013-06-11 07:44:00,
2013-06-11 03:45:00,72.7,68.3,29.65,East,101,0.0,0.0,86,0.00,,---,0.00,VWS V14.01,2013-06-11 07:45:00,
2013-06-11 03:47:00,72.7,68.3,29.65,East,101,0.0,0.0,86,0.00,,---,0.00,VWS V14.01,2013-06-11 07:47:00,
2013-06-11 03:49:00,72.7,68.3,29.65,East,101,0.0,0.0,86,0.00,,---,0.00,VWS V14.01,2013-06-11 07:49:00,
2013-06-11 03:50:00,72.7,68.6,29.65,East,101,0.0,0.0,87,0.00,,---,0.00,VWS V14.01,2013-06-11 07:50:00,
2013-06-11 03:52:00,72.7,68.6,29.65,East,101,0.0,0.0,87,0.00,,---,0.00,VWS V14.01,2013-06-11 07:52:00,
2013-06-11 03:54:00,72.7,68.6,29.65,East,101,0.0,0.0,87,0.00,,---,0.00,VWS V14.01,2013-06-11 07:54:00,
2013-06-11 03:55:00,72.7,68.6,29.65,East,101,0.0,0.0,87,0.00,,---,0.00,VWS V14.01,2013-06-11 07:55:00,
2013-06-11 03:57:00,72.7,68.6,29.65,NE,36,0.0,0.0,87,0.00,,---,0.00,VWS V14.01,2013-06-11 07:57:00,
2013-06-11 03:59:00,72.7,68.6,29.65,NE,36,0.0,0.0,87,0.00,,---,0.00,VWS V14.01,2013-06-11 07:59:00,
2013-06-11 04:00:00,72.7,68.6,29.65,NE,42,0.0,0.0,87,0.00,,---,0.00,VWS V14.01,2013-06-11 08:00:00,
2013-06-11 04:01:00,72.7,68.6,29.65,NE,42,0.0,0.0,87,0.00,,---,0.00,VWS V14.01,2013-06-11 08:01:00,
2013-06-11 04:03:00,72.9,68.8,29.65,NE,42,0.0,0.0,87,0.00,,---,0.00,VWS V14.01,2013-06-11 08:03:00,
2013-06-11 04:04:00,72.9,68.8,29.65,West,261,0.0,0.0,87,0.00,,---,0.00,VWS V14.01,2013-06-11 08:04:00,
2013-06-11 04:05:00,72.9,68.8,29.65,West,271,0.0,2.7,87,0.00,,---,0.00,VWS V14.01,2013-06-11 08:05:00,
2013-06-11 04:06:00,72.9,68.8,29.65,West,271,0.0,0.0,87,0.00,,---,0.00,VWS V14.01,2013-06-11 08:06:00,
2013-06-11 04:08:00,72.9,68.8,29.65,West,271,0.0,0.0,87,0.00,,---,0.00,VWS V14.01,2013-06-11 08:08:00,
2013-06-11 04:09:00,72.9,68.8,29.65,West,271,0.0,0.0,87,0.00,,---,0.00,VWS V14.01,2013-06-11 08:09:00,
2013-06-11 04:10:00,72.9,68.8,29.65,West,271,0.0,0.0,87,0.00,,---,0.00,VWS V14.01,2013-06-11 08:10:00,
2013-06-11 04:11:00,72.9,68.8,29.65,West,271,0.0,0.0,87,0.00,,---,0.00,VWS V14.01,2013-06-11 08:11:00,
2013-06-11 04:13:00,72.9,68.8,29.65,SSW,211,0.0,0.0,87,0.00,,---,0.00,VWS V14.01,2013-06-11 08:13:00,
2013-06-11 04:14:00,72.9,68.8,29.65,SSW,211,0.0,0.0,87,0.00,,---,0.00,VWS V14.01,2013-06-11 08:14:00,
2013-06-11 04:15:00,72.9,68.8,29.65,SSW,211,0.0,0.0,87,0.00,,---,0.00,VWS V14.01,2013-06-11 08:15:00,
2013-06-11 04:16:00,72.9,68.8,29.65,SSW,211,0.0,0.0,87,0.00,,---,0.00,VWS V14.01,2013-06-11 08:16:00,
2013-06-11 04:18:00,72.9,68.8,29.65,SSW,211,0.0,0.0,87,0.00,,---,0.00,VWS V14.01,2013-06-11 08:18:00,
2013-06-11 04:19:00,72.9,68.8,29.65,SSW,211,0.0,0.0,87,0.00,,---,0.00,VWS V14.01,2013-06-11 08:19:00,
2013-06-11 04:20:00,72.9,68.8,29.65,SSW,211,0.0,0.0,87,0.00,,---,0.00,VWS V14.01,2013-06-11 08:20:00,
2013-06-11 04:21:00,72.9,68.8,29.65,SSW,211,0.0,0.0,87,0.00,,---,0.00,VWS V14.01,2013-06-11 08:21:00,
2013-06-11 04:23:00,72.9,68.8,29.65,SSE,149,0.0,2.7,87,0.00,,---,0.00,VWS V14.01,2013-06-11 08:23:00,
2013-06-11 04:25:00,72.9,68.8,29.65,SSE,149,0.0,0.0,87,0.00,,---,0.00,VWS V14.01,2013-06-11 08:25:00,
2013-06-11 04:26:00,72.9,68.8,29.65,SSE,149,0.0,0.0,87,0.00,,---,0.00,VWS V14.01,2013-06-11 08:26:00,
2013-06-11 04:28:00,72.9,68.8,29.65,NW,310,0.0,0.0,87,0.00,,---,0.00,VWS V14.01,2013-06-11 08:28:00,
2013-06-11 04:30:00,72.9,68.8,29.65,NW,324,0.0,0.0,87,0.00,,---,0.00,VWS V14.01,2013-06-11 08:30:00,
2013-06-11 04:32:00,72.9,68.8,29.65,NW,324,0.0,0.0,87,0.00,,---,0.00,VWS V14.01,2013-06-11 08:32:00,
2013-06-11 04:33:00,72.9,68.8,29.65,NW,324,0.0,0.0,87,0.00,,---,0.00,VWS V14.01,2013-06-11 08:33:00,
2013-06-11 04:35:00,72.7,68.6,29.65,NW,324,0.0,0.0,87,0.00,,---,0.00,VWS V14.01,2013-06-11 08:35:00,
2013-06-11 04:37:00,72.7,68.6,29.65,NW,324,0.0,0.0,87,0.00,,---,0.00,VWS V14.01,2013-06-11 08:37:00,
2013-06-11 04:39:00,72.7,68.6,29.65,ENE,64,0.0,0.0,87,0.00,,---,0.00,VWS V14.01,2013-06-11 08:39:00,
2013-06-11 04:40:00,72.7,68.6,29.65,SE,125,0.0,0.0,87,0.00,,---,0.00,VWS V14.01,2013-06-11 08:40:00,
2013-06-11 04:41:00,72.7,68.6,29.65,SE,125,0.0,0.0,87,0.00,,---,0.00,VWS V14.01,2013-06-11 08:41:00,
2013-06-11 04:42:00,72.7,68.6,29.65,SE,125,0.0,0.0,87,0.00,,---,0.00,VWS V14.01,2013-06-11 08:42:00,
2013-06-11 04:44:00,72.7,68.6,29.65,SE,125,0.0,0.0,87,0.00,,---,0.00,VWS V14.01,2013-06-11 08:44:00,
2013-06-11 04:45:00,72.7,68.6,29.65,SE,125,0.0,0.0,87,0.00,,---,0.00,VWS V14.01,2013-06-11 08:45:00,
2013-06-11 04:46:00,72.7,68.6,29.65,SE,125,0.0,0.0,87,0.00,,---,0.00,VWS V14.01,2013-06-11 08:46:00,
2013-06-11 04:47:00,72.5,68.4,29.65,SE,125,0.0,0.0,87,0.00,,---,0.00,VWS V14.01,2013-06-11 08:47:00,
2013-06-11 04:49:00,72.5,68.4,29.65,SE,125,0.0,0.0,87,0.00,,---,0.00,VWS V14.01,2013-06-11 08:49:00,
2013-06-11 04:50:00,72.5,68.4,29.65,SE,125,0.0,0.0,87,0.00,,---,0.00,VWS V14.01,2013-06-11 08:50:00,
2013-06-11 04:51:00,72.5,68.4,29.65,SE,125,0.0,0.0,87,0.00,,---,0.00,VWS V14.01,2013-06-11 08:51:00,
2013-06-11 04:52:00,72.5,68.4,29.65,SE,125,0.0,0.0,87,0.00,,---,0.00,VWS V14.01,2013-06-11 08:52:00,
2013-06-11 04:54:00,72.3,68.2,29.65,SE,125,0.0,0.0,87,0.00,,---,0.00,VWS V14.01,2013-06-11 08:54:00,
2013-06-11 04:55:00,72.3,68.2,29.65,SE,125,0.0,0.0,87,0.00,,---,0.00,VWS V14.01,2013-06-11 08:55:00,
2013-06-11 04:56:00,72.3,68.2,29.65,SE,125,0.0,0.0,87,0.00,,---,0.00,VWS V14.01,2013-06-11 08:56:00,
2013-06-11 04:57:00,72.3,68.2,29.65,SE,125,0.0,0.0,87,0.00,,---,0.00,VWS V14.01,2013-06-11 08:57:00,
2013-06-11 04:59:00,72.3,68.2,29.65,SE,125,0.0,0.0,87,0.00,,---,0.00,VWS V14.01,2013-06-11 08:59:00,
2013-06-11 05:00:00,72.3,68.2,29.65,SE,125,0.0,0.0,87,0.00,,---,0.00,VWS V14.01,2013-06-11 09:00:00,
2013-06-11 05:01:00,72.3,68.2,29.65,SE,125,0.0,0.0,87,0.00,,---,0.00,VWS V14.01,2013-06-11 09:01:00,
2013-06-11 05:02:00,72.1,68.1,29.65,SE,125,0.0,0.0,87,0.00,,---,0.00,VWS V14.01,2013-06-11 09:02:00,
2013-06-11 05:04:00,72.1,68.1,29.65,SE,125,0.0,0.0,87,0.00,,---,0.00,VWS V14.01,2013-06-11 09:04:00,
2013-06-11 05:05:00,72.1,68.1,29.65,SE,124,0.0,0.0,87,0.00,,---,0.00,VWS V14.01,2013-06-11 09:05:00,
2013-06-11 05:06:00,72.1,68.1,29.65,SE,125,0.0,0.0,87,0.00,,---,0.00,VWS V14.01,2013-06-11 09:06:00,
2013-06-11 05:07:00,72.1,68.1,29.65,SE,125,0.0,0.0,87,0.00,,---,0.00,VWS V14.01,2013-06-11 09:07:00,
2013-06-11 05:10:00,72.1,68.1,29.65,SE,125,0.0,0.0,87,0.00,,---,0.00,VWS V14.01,2013-06-11 09:10:00,
2013-06-11 05:11:00,72.1,68.1,29.65,SE,125,0.0,0.0,87,0.00,,---,0.00,VWS V14.01,2013-06-11 09:11:00,
2013-06-11 05:12:00,72.0,67.9,29.65,SE,125,0.0,0.0,87,0.00,,---,0.00,VWS V14.01,2013-06-11 09:12:00,
2013-06-11 05:15:00,72.0,67.9,29.65,SE,125,0.0,0.0,87,0.00,,---,0.00,VWS V14.01,2013-06-11 09:15:00,
2013-06-11 05:16:00,72.0,67.9,29.65,SE,125,0.0,0.0,87,0.00,,---,0.00,VWS V14.01,2013-06-11 09:16:00,
2013-06-11 05:17:00,72.0,67.9,29.65,SE,125,0.0,0.0,87,0.00,,---,0.00,VWS V14.01,2013-06-11 09:17:00,
2013-06-11 05:20:00,72.0,67.9,29.65,SE,125,0.0,0.0,87,0.00,,---,0.00,VWS V14.01,2013-06-11 09:20:00,
2013-06-11 05:21:00,72.0,67.9,29.65,SE,125,0.0,0.0,87,0.00,,---,0.00,VWS V14.01,2013-06-11 09:21:00,
2013-06-11 05:22:00,72.0,67.9,29.65,SE,125,0.0,0.0,87,0.00,,---,0.00,VWS V14.01,2013-06-11 09:22:00,
2013-06-11 05:23:00,71.8,67.7,29.65,SE,125,0.0,0.0,87,0.00,,---,0.00,VWS V14.01,2013-06-11 09:23:00,
2013-06-11 05:25:00,71.8,67.7,29.65,SE,125,0.0,0.0,87,0.00,,---,0.00,VWS V14.01,2013-06-11 09:25:00,
2013-06-11 05:26:00,71.8,67.7,29.65,SE,125,0.0,0.0,87,0.00,,---,0.00,VWS V14.01,2013-06-11 09:26:00,
2013-06-11 05:27:00,71.8,67.7,29.65,SE,125,0.0,0.0,87,0.00,,---,0.00,VWS V14.01,2013-06-11 09:27:00,
2013-06-11 05:28:00,71.8,67.7,29.65,SE,125,0.0,0.0,87,0.00,,---,0.00,VWS V14.01,2013-06-11 09:28:00,
2013-06-11 05:30:00,71.8,67.7,29.65,SE,125,0.0,0.0,87,0.00,,---,0.00,VWS V14.01,2013-06-11 09:30:00,
2013-06-11 05:32:00,71.8,67.7,29.65,SE,125,0.0,0.0,87,0.00,,---,0.00,VWS V14.01,2013-06-11 09:32:00,
2013-06-11 05:33:00,71.8,67.7,29.65,SE,125,0.0,0.0,87,0.00,,---,0.00,VWS V14.01,2013-06-11 09:33:00,
2013-06-11 05:36:00,71.6,67.5,29.65,SE,125,0.0,0.0,87,0.00,,---,0.00,VWS V14.01,2013-06-11 09:36:00,
2013-06-11 05:37:00,71.6,67.5,29.65,SE,125,0.0,0.0,87,0.00,,---,0.00,VWS V14.01,2013-06-11 09:37:00,
2013-06-11 05:38:00,71.6,67.5,29.65,SE,125,0.0,0.0,87,0.00,,---,0.00,VWS V14.01,2013-06-11 09:38:00,
2013-06-11 05:41:00,71.6,67.5,29.65,SE,125,0.0,0.0,87,0.00,,---,0.00,VWS V14.01,2013-06-11 09:41:00,
2013-06-11 05:42:00,71.6,67.5,29.65,SE,125,0.0,0.0,87,0.00,,---,0.00,VWS V14.01,2013-06-11 09:42:00,
2013-06-11 05:43:00,71.6,67.5,29.65,SE,125,0.0,0.0,87,0.00,,---,0.00,VWS V14.01,2013-06-11 09:43:00,
2013-06-11 05:46:00,71.6,67.2,29.65,SE,125,0.0,0.0,86,0.00,,---,0.00,VWS V14.01,2013-06-11 09:46:00,
2013-06-11 05:47:00,71.6,67.2,29.65,SE,125,0.0,0.0,86,0.00,,---,0.00,VWS V14.01,2013-06-11 09:47:00,
2013-06-11 05:48:00,71.6,67.2,29.65,SE,125,0.0,0.0,86,0.00,,---,0.00,VWS V14.01,2013-06-11 09:48:00,
2013-06-11 05:51:00,71.6,67.2,29.65,SE,125,0.0,0.0,86,0.00,,---,0.00,VWS V14.01,2013-06-11 09:51:00,
2013-06-11 05:52:00,71.4,67.3,29.65,SE,125,0.0,0.0,87,0.00,,---,0.00,VWS V14.01,2013-06-11 09:52:00,
2013-06-11 05:53:00,71.4,67.3,29.65,SE,125,0.0,0.0,87,0.00,,---,0.00,VWS V14.01,2013-06-11 09:53:00,
2013-06-11 05:56:00,71.4,67.3,29.65,SE,125,0.0,0.0,87,0.00,,---,0.00,VWS V14.01,2013-06-11 09:56:00,
2013-06-11 05:57:00,71.4,67.3,29.65,SE,125,0.0,0.0,87,0.00,,---,0.00,VWS V14.01,2013-06-11 09:57:00,
2013-06-11 05:58:00,71.4,67.3,29.65,SE,125,0.0,0.0,87,0.00,,---,0.00,VWS V14.01,2013-06-11 09:58:00,
2013-06-11 05:59:00,71.4,67.3,29.65,SE,125,0.0,0.0,87,0.00,,---,0.00,VWS V14.01,2013-06-11 09:59:00,
2013-06-11 06:01:00,71.4,67.3,29.65,SE,125,0.0,0.0,87,0.00,,---,0.00,VWS V14.01,2013-06-11 10:01:00,
2013-06-11 06:02:00,71.4,67.3,29.65,SE,125,0.0,0.0,87,0.00,,---,0.00,VWS V14.01,2013-06-11 10:02:00,
2013-06-11 06:03:00,71.4,67.3,29.65,SE,125,0.0,0.0,87,0.00,,---,0.00,VWS V14.01,2013-06-11 10:03:00,
2013-06-11 06:04:00,71.4,67.3,29.65,SE,125,0.0,0.0,87,0.00,,---,0.00,VWS V14.01,2013-06-11 10:04:00,
2013-06-11 06:06:00,71.4,67.3,29.65,SE,125,0.0,0.0,87,0.00,,---,0.00,VWS V14.01,2013-06-11 10:06:00,
2013-06-11 06:07:00,71.4,67.3,29.65,SE,125,0.0,0.0,87,0.00,,---,0.00,VWS V14.01,2013-06-11 10:07:00,
2013-06-11 06:08:00,71.4,67.3,29.65,SE,125,0.0,0.0,87,0.00,,---,0.00,VWS V14.01,2013-06-11 10:08:00,
2013-06-11 06:09:00,71.4,67.3,29.65,SE,125,0.0,0.0,87,0.00,,---,0.00,VWS V14.01,2013-06-11 10:09:00,
2013-06-11 06:11:00,71.4,67.3,29.65,SE,125,0.0,0.0,87,0.00,,---,0.00,VWS V14.01,2013-06-11 10:11:00,
2013-06-11 06:12:00,71.4,67.3,29.65,SE,124,0.0,0.0,87,0.00,,---,0.00,VWS V14.01,2013-06-11 10:12:00,
2013-06-11 06:13:00,71.4,67.3,29.65,SE,125,0.0,0.0,87,0.00,,---,0.00,VWS V14.01,2013-06-11 10:13:00,
2013-06-11 06:14:00,71.4,67.3,29.65,SE,125,0.0,0.0,87,0.00,,---,0.00,VWS V14.01,2013-06-11 10:14:00,
2013-06-11 06:16:00,71.4,67.3,29.65,SE,125,0.0,0.0,87,0.00,,---,0.00,VWS V14.01,2013-06-11 10:16:00,
2013-06-11 06:17:00,71.4,67.3,29.65,SE,125,0.0,0.0,87,0.00,,---,0.00,VWS V14.01,2013-06-11 10:17:00,
2013-06-11 06:18:00,71.4,67.3,29.65,SE,125,0.0,0.0,87,0.00,,---,0.00,VWS V14.01,2013-06-11 10:18:00,
2013-06-11 06:19:00,71.4,67.3,29.65,SE,125,0.0,0.0,87,0.00,,---,0.00,VWS V14.01,2013-06-11 10:19:00,
2013-06-11 06:21:00,71.4,67.3,29.65,SE,125,0.0,0.0,87,0.00,,---,0.00,VWS V14.01,2013-06-11 10:21:00,
2013-06-11 06:23:00,71.4,67.3,29.65,SE,125,0.0,0.0,87,0.00,,---,0.00,VWS V14.01,2013-06-11 10:23:00,
2013-06-11 06:24:00,71.4,67.3,29.65,SE,125,0.0,0.0,87,0.00,,---,0.00,VWS V14.01,2013-06-11 10:24:00,
2013-06-11 06:26:00,71.4,67.3,29.65,SE,125,0.0,0.0,87,0.00,,---,0.00,VWS V14.01,2013-06-11 10:26:00,
2013-06-11 06:28:00,71.4,67.3,29.65,SE,125,0.0,0.0,87,0.00,,---,0.00,VWS V14.01,2013-06-11 10:28:00,
2013-06-11 06:29:00,71.4,67.3,29.65,SE,125,0.0,0.0,87,0.00,,---,0.00,VWS V14.01,2013-06-11 10:29:00,
2013-06-11 06:31:00,71.4,67.3,29.65,SE,125,0.0,0.0,87,0.00,,---,0.00,VWS V14.01,2013-06-11 10:31:00,
2013-06-11 06:33:00,71.4,67.3,29.65,SE,125,0.0,0.0,87,0.00,,---,0.00,VWS V14.01,2013-06-11 10:33:00,
2013-06-11 06:34:00,71.4,67.3,29.65,SE,125,0.0,0.0,87,0.00,,---,0.00,VWS V14.01,2013-06-11 10:34:00,
2013-06-11 06:35:00,71.4,67.3,29.65,SE,125,0.0,0.0,87,0.00,,---,0.00,VWS V14.01,2013-06-11 10:35:00,
2013-06-11 06:37:00,71.6,67.2,29.65,SE,125,0.0,0.0,86,0.00,,---,0.00,VWS V14.01,2013-06-11 10:37:00,
2013-06-11 06:38:00,71.6,67.2,29.65,SE,125,0.0,0.0,86,0.00,,---,0.00,VWS V14.01,2013-06-11 10:38:00,
2013-06-11 06:39:00,71.6,67.2,29.65,SE,125,0.0,0.0,86,0.00,,---,0.00,VWS V14.01,2013-06-11 10:39:00,
2013-06-11 06:40:00,71.6,67.5,29.65,SE,125,0.0,0.0,87,0.00,,---,0.00,VWS V14.01,2013-06-11 10:40:00,
2013-06-11 06:42:00,71.8,67.7,29.65,SE,125,0.0,0.0,87,0.00,,---,0.00,VWS V14.01,2013-06-11 10:42:00,
2013-06-11 06:43:00,71.8,67.7,29.65,SE,125,0.0,0.0,87,0.00,,---,0.00,VWS V14.01,2013-06-11 10:43:00,
2013-06-11 06:44:00,71.8,67.7,29.65,SE,125,0.0,0.0,87,0.00,,---,0.00,VWS V14.01,2013-06-11 10:44:00,
2013-06-11 06:45:00,71.8,67.7,29.65,SE,125,0.0,0.0,87,0.00,,---,0.00,VWS V14.01,2013-06-11 10:45:00,
2013-06-11 06:47:00,71.8,67.7,29.65,SE,125,0.0,0.0,87,0.00,,---,0.00,VWS V14.01,2013-06-11 10:47:00,
2013-06-11 06:48:00,71.8,67.7,29.65,SE,125,0.0,0.0,87,0.00,,---,0.00,VWS V14.01,2013-06-11 10:48:00,
2013-06-11 06:49:00,71.8,67.7,29.65,SE,125,0.0,0.0,87,0.00,,---,0.00,VWS V14.01,2013-06-11 10:49:00,
2013-06-11 06:50:00,72.0,67.9,29.65,SE,125,0.0,0.0,87,0.00,,---,0.00,VWS V14.01,2013-06-11 10:50:00,
2013-06-11 06:52:00,72.0,67.9,29.65,SE,125,0.0,0.0,87,0.00,,---,0.00,VWS V14.01,2013-06-11 10:52:00,
2013-06-11 06:53:00,72.0,67.9,29.65,SE,125,0.0,0.0,87,0.00,,---,0.00,VWS V14.01,2013-06-11 10:53:00,
2013-06-11 06:54:00,72.0,67.9,29.65,SE,125,0.0,0.0,87,0.00,,---,0.00,VWS V14.01,2013-06-11 10:54:00,
2013-06-11 06:55:00,72.0,67.9,29.65,SE,125,0.0,0.0,87,0.00,,---,0.00,VWS V14.01,2013-06-11 10:55:00,
2013-06-11 06:57:00,72.1,68.1,29.65,North,0,2.7,2.7,87,0.00,,---,0.00,VWS V14.01,2013-06-11 10:57:00,
2013-06-11 06:59:00,72.1,68.1,29.65,NW,304,0.0,4.0,87,0.00,,---,0.00,VWS V14.01,2013-06-11 10:59:00,
2013-06-11 07:00:00,72.1,68.1,29.65,East,83,2.7,4.0,87,0.00,,---,0.00,VWS V14.01,2013-06-11 11:00:00,
2013-06-11 07:03:00,72.3,68.2,29.65,NNE,29,0.0,0.0,87,0.00,,---,0.00,VWS V14.01,2013-06-11 11:03:00,
2013-06-11 07:04:00,72.3,68.2,29.65,NNE,21,0.0,0.0,87,0.00,,---,0.00,VWS V14.01,2013-06-11 11:04:00,
2013-06-11 07:05:00,72.3,68.2,29.65,ENE,75,0.0,3.1,87,0.00,,---,0.00,VWS V14.01,2013-06-11 11:05:00,
2013-06-11 07:08:00,72.3,68.2,29.65,ENE,75,0.0,0.0,87,0.00,,---,0.00,VWS V14.01,2013-06-11 11:08:00,
2013-06-11 07:09:00,72.3,68.2,29.65,ENE,75,0.0,0.0,87,0.00,,---,0.00,VWS V14.01,2013-06-11 11:09:00,
2013-06-11 07:10:00,72.5,68.4,29.65,ENE,75,0.0,0.0,87,0.00,,---,0.00,VWS V14.01,2013-06-11 11:10:00,
2013-06-11 07:11:00,72.5,68.8,29.65,NNW,341,2.2,2.2,88,0.00,,---,0.00,VWS V14.01,2013-06-11 11:11:00,
2013-06-11 07:13:00,72.5,68.8,29.65,SE,135,0.0,0.0,88,0.00,,---,0.00,VWS V14.01,2013-06-11 11:13:00,
2013-06-11 07:15:00,72.5,68.8,29.65,SSW,194,0.0,0.0,88,0.00,,---,0.00,VWS V14.01,2013-06-11 11:15:00,
2013-06-11 07:16:00,72.5,68.8,29.65,SSW,194,0.0,0.0,88,0.00,,---,0.00,VWS V14.01,2013-06-11 11:16:00,
2013-06-11 07:18:00,72.5,68.8,29.65,SSW,194,0.0,0.0,88,0.00,,---,0.00,VWS V14.01,2013-06-11 11:18:00,
2013-06-11 07:20:00,72.5,68.8,29.65,East,82,3.6,3.6,88,0.00,,---,0.00,VWS V14.01,2013-06-11 11:20:00,
2013-06-11 07:22:00,72.7,68.9,29.65,NE,56,0.0,0.0,88,0.00,,---,0.00,VWS V14.01,2013-06-11 11:22:00,
2013-06-11 07:23:00,72.7,68.9,29.65,SSW,203,0.0,2.2,88,0.00,,---,0.00,VWS V14.01,2013-06-11 11:23:00,
2013-06-11 07:25:00,72.7,68.9,29.65,SSW,203,0.0,0.0,88,0.00,,---,0.00,VWS V14.01,2013-06-11 11:25:00,
2013-06-11 07:26:00,72.7,68.9,29.65,WNW,292,3.1,3.1,88,0.00,,---,0.00,VWS V14.01,2013-06-11 11:26:00,
2013-06-11 07:27:00,72.7,68.9,29.65,WSW,245,3.1,3.1,88,0.00,,---,0.00,VWS V14.01,2013-06-11 11:27:00,
2013-06-11 07:28:00,72.7,68.6,29.65,ESE,122,0.0,0.0,87,0.00,,---,0.00,VWS V14.01,2013-06-11 11:28:00,
2013-06-11 07:30:00,72.7,68.6,29.65,NNE,31,0.0,0.0,87,0.00,,---,0.00,VWS V14.01,2013-06-11 11:30:00,
2013-06-11 07:31:00,72.7,68.6,29.65,NNE,31,0.0,0.0,87,0.00,,---,0.00,VWS V14.01,2013-06-11 11:31:00,
2013-06-11 07:32:00,72.7,68.6,29.65,NNE,31,0.0,0.0,87,0.00,,---,0.00,VWS V14.01,2013-06-11 11:32:00,
2013-06-11 07:33:00,72.7,68.6,29.65,SSE,165,2.2,5.8,87,0.00,,---,0.00,VWS V14.01,2013-06-11 11:33:00,
2013-06-11 07:35:00,72.9,68.8,29.65,ENE,70,0.0,0.0,87,0.00,,---,0.00,VWS V14.01,2013-06-11 11:35:00,
2013-06-11 07:36:00,72.9,68.8,29.65,ENE,70,0.0,0.0,87,0.00,,---,0.00,VWS V14.01,2013-06-11 11:36:00,
2013-06-11 07:37:00,72.9,68.8,29.65,WSW,246,0.0,5.4,87,0.00,,---,0.00,VWS V14.01,2013-06-11 11:37:00,
2013-06-11 07:38:00,72.9,68.8,29.65,West,262,0.0,0.0,87,0.00,,---,0.00,VWS V14.01,2013-06-11 11:38:00,
2013-06-11 07:40:00,73.0,68.9,29.65,SSW,203,0.0,3.1,87,0.00,,---,0.00,VWS V14.01,2013-06-11 11:40:00,
2013-06-11 07:41:00,73.0,68.9,29.65,SSW,203,0.0,3.1,87,0.00,,---,0.00,VWS V14.01,2013-06-11 11:41:00,
2013-06-11 07:42:00,73.0,68.6,29.65,ENE,65,3.1,3.1,86,0.00,,---,0.00,VWS V14.01,2013-06-11 11:42:00,
2013-06-11 07:43:00,73.0,68.6,29.65,East,80,0.0,0.0,86,0.00,,---,0.00,VWS V14.01,2013-06-11 11:43:00,
2013-06-11 07:45:00,73.2,68.8,29.65,East,80,0.0,0.0,86,0.00,,---,0.00,VWS V14.01,2013-06-11 11:45:00,
2013-06-11 07:46:00,73.2,68.8,29.65,East,80,0.0,0.0,86,0.00,,---,0.00,VWS V14.01,2013-06-11 11:46:00,
2013-06-11 07:47:00,73.2,68.8,29.65,East,80,0.0,0.0,86,0.00,,---,0.00,VWS V14.01,2013-06-11 11:47:00,
2013-06-11 07:49:00,73.2,68.4,29.65,North,0,0.0,4.5,85,0.00,,---,0.00,VWS V14.01,2013-06-11 11:49:00,
2013-06-11 07:51:00,73.4,68.6,29.65,South,181,0.0,0.0,85,0.00,,---,0.00,VWS V14.01,2013-06-11 11:51:00,
2013-06-11 07:52:00,73.4,68.3,29.65,SSE,162,0.0,0.0,84,0.00,,---,0.00,VWS V14.01,2013-06-11 11:52:00,
2013-06-11 07:54:00,73.4,68.3,29.65,SSE,162,0.0,0.0,84,0.00,,---,0.00,VWS V14.01,2013-06-11 11:54:00,
2013-06-11 07:56:00,73.6,68.4,29.65,SSE,162,0.0,0.0,84,0.00,,---,0.00,VWS V14.01,2013-06-11 11:56:00,
2013-06-11 07:57:00,73.6,68.4,29.65,SSE,162,0.0,0.0,84,0.00,,---,0.00,VWS V14.01,2013-06-11 11:57:00,
2013-06-11 07:59:00,73.6,68.1,29.65,West,260,0.0,0.0,83,0.00,,---,0.00,VWS V14.01,2013-06-11 11:59:00,
2013-06-11 08:01:00,73.6,68.1,29.65,ESE,123,0.0,0.0,83,0.00,,---,0.00,VWS V14.01,2013-06-11 12:01:00,
2013-06-11 08:02:00,73.6,67.8,29.65,ESE,123,0.0,0.0,82,0.00,,---,0.00,VWS V14.01,2013-06-11 12:02:00,
2013-06-11 08:04:00,73.8,67.6,29.65,East,99,2.7,2.7,81,0.00,,---,0.00,VWS V14.01,2013-06-11 12:04:00,
2013-06-11 08:06:00,73.8,67.6,29.68,SSE,167,3.1,3.1,81,0.00,,---,0.00,VWS V14.01,2013-06-11 12:06:00,
2013-06-11 08:07:00,73.8,67.2,29.68,SSE,167,0.0,0.0,80,0.00,,---,0.00,VWS V14.01,2013-06-11 12:07:00,
2013-06-11 08:08:00,73.8,67.2,29.68,ESE,102,0.0,0.0,80,0.00,,---,0.00,VWS V14.01,2013-06-11 12:08:00,
2013-06-11 08:09:00,73.9,67.4,29.68,ESE,102,0.0,0.0,80,0.00,,---,0.00,VWS V14.01,2013-06-11 12:09:00,
2013-06-11 08:11:00,73.9,67.4,29.68,ESE,102,0.0,0.0,80,0.00,,---,0.00,VWS V14.01,2013-06-11 12:11:00,
2013-06-11 08:12:00,73.9,67.4,29.68,NNW,339,0.0,3.1,80,0.00,,---,0.00,VWS V14.01,2013-06-11 12:12:00,
2013-06-11 08:13:00,73.9,67.4,29.68,South,180,0.0,0.0,80,0.00,,---,0.00,VWS V14.01,2013-06-11 12:13:00,
2013-06-11 08:15:00,73.9,66.3,29.68,South,177,0.0,2.2,77,0.00,,---,0.00,VWS V14.01,2013-06-11 12:15:00,
2013-06-11 08:17:00,73.9,65.5,29.68,SW,214,0.0,3.6,75,0.00,,---,0.00,VWS V14.01,2013-06-11 12:17:00,
2013-06-11 08:18:00,74.1,65.3,29.68,SW,214,0.0,0.0,74,0.00,,---,0.00,VWS V14.01,2013-06-11 12:18:00,
2013-06-11 08:20:00,74.1,64.9,29.68,SW,214,0.0,0.0,73,0.00,,---,0.00,VWS V14.01,2013-06-11 12:20:00,
2013-06-11 08:22:00,74.1,63.3,29.68,SW,214,0.0,0.0,69,0.00,,---,0.00,VWS V14.01,2013-06-11 12:22:00,
2013-06-11 08:23:00,74.1,63.3,29.68,SW,214,0.0,0.0,69,0.00,,---,0.00,VWS V14.01,2013-06-11 12:23:00,
2013-06-11 08:25:00,74.3,62.2,29.68,West,270,0.0,2.2,66,0.00,,---,0.00,VWS V14.01,2013-06-11 12:25:00,
2013-06-11 08:27:00,74.3,61.3,29.68,SW,218,0.0,0.0,64,0.00,,---,0.00,VWS V14.01,2013-06-11 12:27:00,
2013-06-11 08:28:00,74.3,61.8,29.68,SW,218,0.0,0.0,65,0.00,,---,0.00,VWS V14.01,2013-06-11 12:28:00,
2013-06-11 08:30:00,74.3,59.1,29.68,SW,230,0.0,0.0,59,0.00,,---,0.00,VWS V14.01,2013-06-11 12:30:00,
2013-06-11 08:32:00,74.3,55.0,29.68,NW,315,0.0,0.0,51,0.00,,---,0.00,VWS V14.01,2013-06-11 12:32:00,
2013-06-11 08:33:00,74.3,53.4,29.68,NW,325,0.0,0.0,48,0.00,,---,0.00,VWS V14.01,2013-06-11 12:33:00,
2013-06-11 08:35:00,74.3,52.8,29.68,ESE,121,0.0,0.0,47,0.00,,---,0.00,VWS V14.01,2013-06-11 12:35:00,
2013-06-11 08:37:00,74.5,54.1,29.65,ESE,121,0.0,0.0,49,0.00,,---,0.00,VWS V14.01,2013-06-11 12:37:00,
2013-06-11 08:38:00,74.5,54.6,29.65,WNW,298,2.7,2.7,50,0.00,,---,0.00,VWS V14.01,2013-06-11 12:38:00,
2013-06-11 08:40:00,74.5,54.6,29.65,East,88,2.2,3.6,50,0.00,,---,0.00,VWS V14.01,2013-06-11 12:40:00,
2013-06-11 08:42:00,74.7,53.7,29.65,SE,145,3.6,3.6,48,0.00,,---,0.00,VWS V14.01,2013-06-11 12:42:00,
2013-06-11 08:43:00,74.5,53.5,29.65,SE,145,0.0,3.1,48,0.00,,---,0.00,VWS V14.01,2013-06-11 12:43:00,
2013-06-11 08:45:00,74.7,52.5,29.65,SW,225,0.0,4.0,46,0.00,,---,0.00,VWS V14.01,2013-06-11 12:45:00,
2013-06-11 08:47:00,74.8,52.1,29.65,SE,125,0.0,0.0,45,0.00,,---,0.00,VWS V14.01,2013-06-11 12:47:00,
2013-06-11 08:48:00,74.8,52.1,29.65,SE,125,0.0,0.0,45,0.00,,---,0.00,VWS V14.01,2013-06-11 12:48:00,
2013-06-11 08:50:00,75.0,51.0,29.65,North,0,0.0,0.0,43,0.00,,---,0.00,VWS V14.01,2013-06-11 12:50:00,
2013-06-11 08:53:00,75.0,52.3,29.68,ESE,107,4.0,4.0,45,0.00,,---,0.00,VWS V14.01,2013-06-11 12:53:00,
2013-06-11 08:54:00,75.2,53.6,29.68,ESE,107,0.0,4.0,47,0.00,,---,0.00,VWS V14.01,2013-06-11 12:54:00,
2013-06-11 08:55:00,75.2,53.0,29.68,South,190,2.7,4.0,46,0.00,,---,0.00,VWS V14.01,2013-06-11 12:55:00,
2013-06-11 08:58:00,75.0,49.1,29.68,SSW,210,0.0,4.9,40,0.00,,---,0.00,VWS V14.01,2013-06-11 12:58:00,
2013-06-11 08:59:00,75.2,47.2,29.68,South,170,2.7,4.0,37,0.00,,---,0.00,VWS V14.01,2013-06-11 12:59:00,
2013-06-11 09:00:00,75.4,47.3,29.68,SW,227,2.7,4.0,37,0.00,,---,0.00,VWS V14.01,2013-06-11 13:00:00,
2013-06-11 09:03:00,75.6,48.2,29.68,WNW,301,0.0,4.0,38,0.00,,---,0.00,VWS V14.01,2013-06-11 13:03:00,
2013-06-11 09:04:00,75.7,46.9,29.68,SW,229,2.7,2.7,36,0.00,,---,0.00,VWS V14.01,2013-06-11 13:04:00,
2013-06-11 09:06:00,75.7,45.4,29.65,North,357,2.2,2.7,34,0.00,,---,0.00,VWS V14.01,2013-06-11 13:06:00,
2013-06-11 09:08:00,76.1,48.0,29.65,North,357,0.0,0.0,37,0.00,,---,0.00,VWS V14.01,2013-06-11 13:08:00,
2013-06-11 09:09:00,76.1,48.0,29.65,North,357,0.0,0.0,37,0.00,,---,0.00,VWS V14.01,2013-06-11 13:09:00,
2013-06-11 09:11:00,76.3,50.9,29.65,WNW,298,4.9,6.3,41,0.00,,---,0.00,VWS V14.01,2013-06-11 13:11:00,
2013-06-11 09:13:00,76.5,51.7,29.65,East,79,3.6,5.4,42,0.00,,---,0.00,VWS V14.01,2013-06-11 13:13:00,
2013-06-11 09:14:00,76.5,51.0,29.65,SW,218,3.6,3.6,41,0.00,,---,0.00,VWS V14.01,2013-06-11 13:14:00,
2013-06-11 09:16:00,76.5,49.7,29.65,SSE,166,2.7,3.6,39,0.00,,---,0.00,VWS V14.01,2013-06-11 13:16:00,
2013-06-11 09:18:00,76.5,46.0,29.65,SSE,167,2.7,2.7,34,0.00,,---,0.00,VWS V14.01,2013-06-11 13:18:00,
2013-06-11 09:19:00,76.6,47.0,29.65,ENE,77,0.0,0.0,35,0.00,,---,0.00,VWS V14.01,2013-06-11 13:19:00,
2013-06-11 09:20:00,76.6,47.0,29.65,East,87,2.7,2.7,35,0.00,,---,0.00,VWS V14.01,2013-06-11 13:20:00,
2013-06-11 09:21:00,76.6,47.7,29.65,SSE,147,5.4,5.4,36,0.00,,---,0.00,VWS V14.01,2013-06-11 13:21:00,
2013-06-11 09:23:00,76.5,43.6,29.65,SSW,192,3.1,3.1,31,0.00,,---,0.00,VWS V14.01,2013-06-11 13:23:00,
2013-06-11 09:24:00,76.6,44.6,29.65,NNW,342,0.0,6.3,32,0.00,,---,0.00,VWS V14.01,2013-06-11 13:24:00,
2013-06-11 09:25:00,76.6,44.6,29.65,NNW,342,0.0,6.3,32,0.00,,---,0.00,VWS V14.01,2013-06-11 13:25:00,
2013-06-11 09:26:00,76.6,44.6,29.65,NE,42,2.2,3.1,32,0.00,,---,0.00,VWS V14.01,2013-06-11 13:26:00,
2013-06-11 09:28:00,76.8,45.6,29.65,ESE,106,3.1,3.6,33,0.00,,---,0.00,VWS V14.01,2013-06-11 13:28:00,
2013-06-11 09:29:00,76.8,44.8,29.65,SSW,203,0.0,0.0,32,0.00,,---,0.00,VWS V14.01,2013-06-11 13:29:00,
2013-06-11 09:30:00,76.8,44.8,29.65,SSW,203,0.0,0.0,32,0.00,,---,0.00,VWS V14.01,2013-06-11 13:30:00,
2013-06-11 09:31:00,76.8,43.9,29.65,South,174,3.1,3.1,31,0.00,,---,0.00,VWS V14.01,2013-06-11 13:31:00,
2013-06-11 09:33:00,77.0,44.1,29.65,North,0,3.6,3.6,31,0.00,,---,0.00,VWS V14.01,2013-06-11 13:33:00,
2013-06-11 09:35:00,77.2,45.1,29.65,SW,218,3.6,3.6,32,0.00,,---,0.00,VWS V14.01,2013-06-11 13:35:00,
2013-06-11 09:36:00,77.2,45.1,29.65,South,172,2.7,5.4,32,0.00,,---,0.00,VWS V14.01,2013-06-11 13:36:00,
2013-06-11 09:38:00,77.2,39.7,29.65,SE,135,3.1,6.3,26,0.00,,---,0.00,VWS V14.01,2013-06-11 13:38:00,
2013-06-11 09:40:00,77.4,43.5,29.65,NW,321,5.4,5.4,30,0.00,,---,0.00,VWS V14.01,2013-06-11 13:40:00,
2013-06-11 09:41:00,77.4,40.8,29.65,SSW,198,5.4,5.4,27,0.00,,---,0.00,VWS V14.01,2013-06-11 13:41:00,
2013-06-11 09:43:00,77.4,37.8,29.65,NNE,28,2.7,4.9,24,0.00,,---,0.00,VWS V14.01,2013-06-11 13:43:00,
2013-06-11 09:45:00,77.4,38.8,29.65,South,183,3.6,5.4,25,0.00,,---,0.00,VWS V14.01,2013-06-11 13:45:00,
2013-06-11 09:46:00,77.5,44.5,29.65,West,275,4.5,4.5,31,0.00,,---,0.00,VWS V14.01,2013-06-11 13:46:00,
2013-06-11 09:48:00,77.4,40.8,29.65,ENE,61,3.6,3.6,27,0.00,,---,0.00,VWS V14.01,2013-06-11 13:48:00,
2013-06-11 09:50:00,77.5,43.7,29.65,ESE,121,3.6,3.6,30,0.00,,---,0.00,VWS V14.01,2013-06-11 13:50:00,
2013-06-11 09:51:00,77.5,44.5,29.65,North,8,2.2,2.7,31,0.00,,---,0.00,VWS V14.01,2013-06-11 13:51:00,
2013-06-11 09:54:00,77.7,40.1,29.65,SSW,199,3.1,4.0,26,0.00,,---,0.00,VWS V14.01,2013-06-11 13:54:00,
2013-06-11 09:55:00,77.9,41.3,29.65,North,357,3.6,3.6,27,0.00,,---,0.00,VWS V14.01,2013-06-11 13:55:00,
2013-06-11 09:56:00,77.7,39.1,29.65,North,11,3.1,3.1,25,0.00,,---,0.00,VWS V14.01,2013-06-11 13:56:00,
2013-06-11 09:59:00,77.7,39.1,29.65,NNE,19,2.7,4.0,25,0.00,,---,0.00,VWS V14.01,2013-06-11 13:59:00,
2013-06-11 10:00:00,77.5,37.9,29.65,ENE,60,5.4,5.4,24,0.00,,---,0.00,VWS V14.01,2013-06-11 14:00:00,
2013-06-11 10:01:00,77.5,37.9,29.65,North,5,5.4,5.4,24,0.00,,---,0.00,VWS V14.01,2013-06-11 14:01:00,
2013-06-11 10:02:00,77.5,37.9,29.65,West,277,4.0,5.4,24,0.00,,---,0.00,VWS V14.01,2013-06-11 14:02:00,
2013-06-11 10:04:00,77.5,37.9,29.65,NW,310,4.0,5.4,24,0.00,,---,0.00,VWS V14.01,2013-06-11 14:04:00,
2013-06-11 10:05:00,77.4,36.7,29.65,South,179,5.4,8.3,23,0.00,,---,0.00,VWS V14.01,2013-06-11 14:05:00,
2013-06-11 10:06:00,77.4,36.7,29.65,WSW,237,4.0,6.7,23,0.00,,---,0.00,VWS V14.01,2013-06-11 14:06:00,
2013-06-11 10:07:00,77.4,36.7,29.65,SW,222,6.3,6.7,23,0.00,,---,0.00,VWS V14.01,2013-06-11 14:07:00,
2013-06-11 10:09:00,77.4,36.7,29.65,NW,316,8.1,8.1,23,0.00,,---,0.00,VWS V14.01,2013-06-11 14:09:00,
2013-06-11 10:10:00,77.5,35.7,29.65,NNW,335,4.0,4.9,22,0.00,,---,0.00,VWS V14.01,2013-06-11 14:10:00,
2013-06-11 10:11:00,77.4,35.6,29.65,NNW,329,4.9,4.9,22,0.00,,---,0.00,VWS V14.01,2013-06-11 14:11:00,
2013-06-11 10:12:00,77.4,35.6,29.65,NNE,13,2.7,2.7,22,0.00,,---,0.00,VWS V14.01,2013-06-11 14:12:00,
2013-06-11 10:14:00,77.4,35.6,29.65,North,353,5.4,5.4,22,0.00,,---,0.00,VWS V14.01,2013-06-11 14:14:00,
2013-06-11 10:16:00,77.4,38.8,29.65,SSW,199,4.0,4.0,25,0.00,,---,0.00,VWS V14.01,2013-06-11 14:16:00,
2013-06-11 10:17:00,77.4,40.8,29.65,SW,215,3.6,4.0,27,0.00,,---,0.00,VWS V14.01,2013-06-11 14:17:00,
2013-06-11 10:19:00,77.5,39.0,29.65,North,10,2.7,2.7,25,0.00,,---,0.00,VWS V14.01,2013-06-11 14:19:00,
2013-06-11 10:21:00,77.5,36.8,29.65,WNW,303,4.0,4.0,23,0.00,,---,0.00,VWS V14.01,2013-06-11 14:21:00,
2013-06-11 10:22:00,77.7,35.9,29.65,SW,228,4.9,4.9,22,0.00,,---,0.00,VWS V14.01,2013-06-11 14:22:00,
2013-06-11 10:24:00,77.9,38.2,29.65,NE,35,0.0,4.0,24,0.00,,---,0.00,VWS V14.01,2013-06-11 14:24:00,
2013-06-11 10:26:00,77.9,39.3,29.65,South,189,3.6,3.6,25,0.00,,---,0.00,VWS V14.01,2013-06-11 14:26:00,
2013-06-11 10:27:00,77.9,37.2,29.65,NNE,33,2.2,2.7,23,0.00,,---,0.00,VWS V14.01,2013-06-11 14:27:00,
2013-06-11 10:30:00,77.7,35.9,29.65,West,271,3.6,5.8,22,0.00,,---,0.00,VWS V14.01,2013-06-11 14:30:00,
2013-06-11 10:32:00,77.4,34.4,29.65,NNW,327,2.7,4.9,21,0.00,,---,0.00,VWS V14.01,2013-06-11 14:32:00,
2013-06-11 10:33:00,77.4,34.4,29.65,SSW,201,3.6,3.6,21,0.00,,---,0.00,VWS V14.01,2013-06-11 14:33:00,
2013-06-11 10:35:00,77.4,34.4,29.65,NW,322,0.0,5.4,21,0.00,,---,0.00,VWS V14.01,2013-06-11 14:35:00,
2013-06-11 10:37:00,77.5,37.9,29.65,NNE,13,2.2,3.6,24,0.00,,---,0.00,VWS V14.01,2013-06-11 14:37:00,
2013-06-11 10:38:00,77.4,35.6,29.65,NW,322,3.1,3.6,22,0.00,,---,0.00,VWS V14.01,2013-06-11 14:38:00,
2013-06-11 10:40:00,77.4,34.4,29.65,North,349,2.7,5.4,21,0.00,,---,0.00,VWS V14.01,2013-06-11 14:40:00,
2013-06-11 10:42:00,77.4,35.6,29.65,North,357,0.0,2.2,22,0.00,,---,0.00,VWS V14.01,2013-06-11 14:42:00,
2013-06-11 10:43:00,77.4,35.6,29.65,North,357,0.0,2.2,22,0.00,,---,0.00,VWS V14.01,2013-06-11 14:43:00,
2013-06-11 10:45:00,77.4,34.4,29.65,SSW,205,0.0,0.0,21,0.00,,---,0.00,VWS V14.01,2013-06-11 14:45:00,
2013-06-11 10:47:00,77.5,35.7,29.65,SE,144,0.0,0.0,22,0.00,,---,0.00,VWS V14.01,2013-06-11 14:47:00,
2013-06-11 10:48:00,77.9,38.2,29.65,SE,144,0.0,0.0,24,0.00,,---,0.00,VWS V14.01,2013-06-11 14:48:00,
2013-06-11 10:50:00,77.9,34.9,29.65,NW,326,3.6,6.3,21,0.00,,---,0.00,VWS V14.01,2013-06-11 14:50:00,
2013-06-11 10:53:00,78.4,35.3,29.65,SW,217,2.2,6.7,21,0.00,,---,0.00,VWS V14.01,2013-06-11 14:53:00,
2013-06-11 10:56:00,78.8,35.6,29.65,NE,38,4.9,5.8,21,0.00,,---,0.00,VWS V14.01,2013-06-11 14:56:00,
2013-06-11 10:58:00,79.0,34.5,29.65,East,97,2.7,4.0,20,0.00,,---,0.00,VWS V14.01,2013-06-11 14:58:00,
2013-06-11 11:01:00,78.8,35.6,29.65,ENE,62,2.7,3.1,21,0.00,,---,0.00,VWS V14.01,2013-06-11 15:01:00,
2013-06-11 11:03:00,79.0,35.8,29.65,NE,51,4.0,4.0,21,0.00,,---,0.00,VWS V14.01,2013-06-11 15:03:00,
2013-06-11 11:04:00,79.0,35.8,29.65,South,183,2.2,2.2,21,0.00,,---,0.00,VWS V14.01,2013-06-11 15:04:00,
2013-06-11 11:06:00,79.0,36.9,29.65,SSE,163,0.0,2.7,22,0.00,,---,0.00,VWS V14.01,2013-06-11 15:06:00,
2013-06-11 11:08:00,79.0,35.8,29.65,SSW,192,0.0,0.0,21,0.00,,---,0.00,VWS V14.01,2013-06-11 15:08:00,
2013-06-11 11:09:00,79.0,35.8,29.65,ENE,59,3.6,3.6,21,0.00,,---,0.00,VWS V14.01,2013-06-11 15:09:00,
2013-06-11 11:12:00,78.8,35.6,29.65,SE,130,3.6,3.6,21,0.00,,---,0.00,VWS V14.01,2013-06-11 15:12:00,
2013-06-11 11:13:00,78.8,34.4,29.65,South,180,2.2,2.7,20,0.00,,---,0.00,VWS V14.01,2013-06-11 15:13:00,
2013-06-11 11:14:00,78.8,34.4,29.65,South,179,2.2,2.7,20,0.00,,---,0.00,VWS V14.01,2013-06-11 15:14:00,
2013-06-11 11:17:00,78.8,35.6,29.65,SSW,200,2.2,4.0,21,0.00,,---,0.00,VWS V14.01,2013-06-11 15:17:00,
2013-06-11 11:18:00,78.6,35.5,29.65,North,353,2.7,4.9,21,0.00,,---,0.00,VWS V14.01,2013-06-11 15:18:00,
2013-06-11 11:19:00,78.6,36.6,29.65,ESE,111,3.1,4.9,22,0.00,,---,0.00,VWS V14.01,2013-06-11 15:19:00,
2013-06-11 11:22:00,78.4,35.3,29.65,SW,233,0.0,2.2,21,0.00,,---,0.00,VWS V14.01,2013-06-11 15:22:00,
2013-06-11 11:23:00,78.4,35.3,29.65,ENE,57,2.2,2.7,21,0.00,,---,0.00,VWS V14.01,2013-06-11 15:23:00,
2013-06-11 11:24:00,78.6,35.5,29.65,NW,314,2.7,2.7,21,0.00,,---,0.00,VWS V14.01,2013-06-11 15:24:00,
2013-06-11 11:25:00,78.6,37.8,29.65,NNW,346,0.0,3.1,23,0.00,,---,0.00,VWS V14.01,2013-06-11 15:25:00,
2013-06-11 11:27:00,78.6,35.5,29.65,NNW,332,0.0,3.1,21,0.00,,---,0.00,VWS V14.01,2013-06-11 15:27:00,
2013-06-11 11:28:00,78.6,35.5,29.65,NNW,332,0.0,0.0,21,0.00,,---,0.00,VWS V14.01,2013-06-11 15:28:00,
2013-06-11 11:29:00,78.6,35.5,29.65,NNW,332,0.0,0.0,21,0.00,,---,0.00,VWS V14.01,2013-06-11 15:29:00,
2013-06-11 11:30:00,78.6,35.5,29.65,SSE,158,3.6,3.6,21,0.00,,---,0.00,VWS V14.01,2013-06-11 15:30:00,
2013-06-11 11:32:00,78.8,36.8,29.65,West,272,3.6,3.6,22,0.00,,---,0.00,VWS V14.01,2013-06-11 15:32:00,
2013-06-11 11:34:00,78.8,35.6,29.65,NW,308,3.6,5.8,21,0.00,,---,0.00,VWS V14.01,2013-06-11 15:34:00,
2013-06-11 11:35:00,79.2,35.9,29.65,WSW,240,3.1,5.4,21,0.00,,---,0.00,VWS V14.01,2013-06-11 15:35:00,
2013-06-11 11:37:00,79.3,37.2,29.65,SSE,163,4.0,4.0,22,0.00,,---,0.00,VWS V14.01,2013-06-11 15:37:00,
2013-06-11 11:39:00,79.3,36.0,29.65,WSW,256,3.1,3.6,21,0.00,,---,0.00,VWS V14.01,2013-06-11 15:39:00,
2013-06-11 11:40:00,79.5,30.9,29.65,South,174,4.0,4.9,17,0.00,,---,0.00,VWS V14.01,2013-06-11 15:40:00,
2013-06-11 11:42:00,79.5,35.0,29.65,ESE,122,3.6,4.0,20,0.00,,---,0.00,VWS V14.01,2013-06-11 15:42:00,
2013-06-11 11:44:00,79.7,35.1,29.65,NNW,339,7.6,7.6,20,0.00,,---,0.00,VWS V14.01,2013-06-11 15:44:00,
2013-06-11 11:45:00,79.5,30.9,29.65,North,0,0.0,2.7,17,0.00,,---,0.00,VWS V14.01,2013-06-11 15:45:00,
2013-06-11 11:47:00,79.9,36.5,29.65,NNE,17,2.7,3.6,21,0.00,,---,0.00,VWS V14.01,2013-06-11 15:47:00,
2013-06-11 11:49:00,79.9,35.3,29.65,South,183,3.1,5.4,20,0.00,,---,0.00,VWS V14.01,2013-06-11 15:49:00,
2013-06-11 11:50:00,79.9,35.3,29.65,ESE,108,4.0,4.9,20,0.00,,---,0.00,VWS V14.01,2013-06-11 15:50:00,
2013-06-11 11:52:00,80.1,35.4,29.65,SE,137,3.6,3.6,20,0.00,,---,0.00,VWS V14.01,2013-06-11 15:52:00,
2013-06-11 11:54:00,80.2,35.6,29.65,SSW,209,2.7,3.1,20,0.00,,---,0.00,VWS V14.01,2013-06-11 15:54:00,
2013-06-11 11:56:00,80.2,35.6,29.65,East,99,3.6,3.6,20,0.00,,---,0.00,VWS V14.01,2013-06-11 15:56:00,
2013-06-11 11:58:00,80.2,31.5,29.65,South,190,0.0,0.0,17,0.00,,---,0.00,VWS V14.01,2013-06-11 15:58:00,
2013-06-11 11:59:00,80.2,31.5,29.65,NW,326,3.1,3.1,17,0.00,,---,0.00,VWS V14.01,2013-06-11 15:59:00,
2013-06-11 12:00:00,80.4,35.7,29.65,NW,326,0.0,3.1,20,0.00,,---,0.00,VWS V14.01,2013-06-11 16:00:00,
2013-06-11 12:01:00,80.2,31.5,29.65,NW,326,0.0,0.0,17,0.00,,---,0.00,VWS V14.01,2013-06-11 16:01:00,
2013-06-11 12:03:00,80.4,31.7,29.65,SSW,213,2.2,4.0,17,0.00,,---,0.00,VWS V14.01,2013-06-11 16:03:00,
2013-06-11 12:04:00,80.4,28.6,29.65,WSW,239,2.7,4.0,15,0.00,,---,0.00,VWS V14.01,2013-06-11 16:04:00,
2013-06-11 12:05:00,80.4,31.7,29.65,NNE,15,2.7,4.0,17,0.00,,---,0.00,VWS V14.01,2013-06-11 16:05:00,
2013-06-11 12:06:00,80.6,27.0,29.65,NNW,345,5.8,5.8,14,0.00,,---,0.00,VWS V14.01,2013-06-11 16:06:00,
2013-06-11 12:08:00,80.6,23.4,29.65,NNW,342,6.3,6.3,12,0.00,,---,0.00,VWS V14.01,2013-06-11 16:08:00,
2013-06-11 12:09:00,80.6,23.4,29.65,NW,321,4.9,4.9,12,0.00,,---,0.00,VWS V14.01,2013-06-11 16:09:00,
2013-06-11 12:10:00,80.4,23.2,29.65,NNW,332,5.4,5.4,12,0.00,,---,0.00,VWS V14.01,2013-06-11 16:10:00,
2013-06-11 12:11:00,80.4,23.2,29.65,NE,41,2.2,5.8,12,0.00,,---,0.00,VWS V14.01,2013-06-11 16:11:00,
2013-06-11 12:13:00,80.2,23.1,29.65,NW,325,0.0,0.0,12,0.00,,---,0.00,VWS V14.01,2013-06-11 16:13:00,
2013-06-11 12:14:00,80.1,28.3,29.65,NE,54,3.1,3.6,15,0.00,,---,0.00,VWS V14.01,2013-06-11 16:14:00,
2013-06-11 12:15:00,80.2,28.4,29.65,SSW,194,4.9,4.9,15,0.00,,---,0.00,VWS V14.01,2013-06-11 16:15:00,
2013-06-11 12:16:00,80.2,28.4,29.65,SSE,149,2.2,5.8,15,0.00,,---,0.00,VWS V14.01,2013-06-11 16:16:00,
2013-06-11 12:18:00,79.9,28.1,29.65,North,5,0.0,5.4,15,0.00,,---,0.00,VWS V14.01,2013-06-11 16:18:00,
2013-06-11 12:19:00,79.9,28.1,29.65,NNE,23,0.0,3.1,15,0.00,,---,0.00,VWS V14.01,2013-06-11 16:19:00,
2013-06-11 12:20:00,79.9,28.1,29.65,NNE,23,0.0,0.0,15,0.00,,---,0.00,VWS V14.01,2013-06-11 16:20:00,
2013-06-11 12:21:00,79.7,28.0,29.65,NNE,23,0.0,0.0,15,0.00,,---,0.00,VWS V14.01,2013-06-11 16:21:00,
2013-06-11 12:24:00,79.5,30.9,29.65,South,170,5.4,5.4,17,0.00,,---,0.00,VWS V14.01,2013-06-11 16:24:00,
2013-06-11 12:25:00,79.5,27.9,29.65,West,270,2.7,5.4,15,0.00,,---,0.00,VWS V14.01,2013-06-11 16:25:00,
2013-06-11 12:26:00,79.7,31.1,29.65,West,270,0.0,3.1,17,0.00,,---,0.00,VWS V14.01,2013-06-11 16:26:00,
2013-06-11 12:29:00,79.9,31.2,29.65,North,357,0.0,0.0,17,0.00,,---,0.00,VWS V14.01,2013-06-11 16:29:00,
2013-06-11 12:30:00,80.2,31.5,29.65,North,357,0.0,0.0,17,0.00,,---,0.00,VWS V14.01,2013-06-11 16:30:00,
2013-06-11 12:31:00,80.6,31.8,29.65,North,357,0.0,0.0,17,0.00,,---,0.00,VWS V14.01,2013-06-11 16:31:00,
2013-06-11 12:34:00,81.1,27.5,29.65,WNW,293,4.0,4.5,14,0.00,,---,0.00,VWS V14.01,2013-06-11 16:34:00,
2013-06-11 12:35:00,81.3,27.6,29.65,East,91,2.7,6.3,14,0.00,,---,0.00,VWS V14.01,2013-06-11 16:35:00,
2013-06-11 12:37:00,81.5,27.8,29.65,East,91,2.2,2.7,14,0.00,,---,0.00,VWS V14.01,2013-06-11 16:37:00,
2013-06-11 12:39:00,81.9,28.0,29.65,NNE,18,2.2,2.7,14,0.00,,---,0.00,VWS V14.01,2013-06-11 16:39:00,
2013-06-11 12:40:00,81.9,28.0,29.65,SSW,205,3.6,3.6,14,0.00,,---,0.00,VWS V14.01,2013-06-11 16:40:00,
2013-06-11 12:41:00,81.9,24.3,29.65,NNE,22,5.4,5.4,12,0.00,,---,0.00,VWS V14.01,2013-06-11 16:41:00,
2013-06-11 12:42:00,82.0,28.2,29.65,SSW,209,2.2,2.7,14,0.00,,---,0.00,VWS V14.01,2013-06-11 16:42:00,
2013-06-11 12:44:00,82.4,28.5,29.65,ESE,122,2.2,5.8,14,0.00,,---,0.00,VWS V14.01,2013-06-11 16:44:00,
2013-06-11 12:45:00,82.4,28.5,29.65,WNW,292,3.1,3.1,14,0.00,,---,0.00,VWS V14.01,2013-06-11 16:45:00,
2013-06-11 12:46:00,82.4,28.5,29.65,WNW,286,3.1,4.0,14,0.00,,---,0.00,VWS V14.01,2013-06-11 16:46:00,
2013-06-11 12:47:00,82.4,22.7,29.65,NW,321,3.6,5.8,11,0.00,,---,0.00,VWS V14.01,2013-06-11 16:47:00,
2013-06-11 12:49:00,82.6,22.8,29.65,ENE,70,3.1,6.3,11,0.00,,---,0.00,VWS V14.01,2013-06-11 16:49:00,
2013-06-11 12:50:00,82.8,23.0,29.65,NW,321,4.0,4.0,11,0.00,,---,0.00,VWS V14.01,2013-06-11 16:50:00,
2013-06-11 12:51:00,82.6,22.8,29.65,SSW,199,2.7,4.0,11,0.00,,---,0.00,VWS V14.01,2013-06-11 16:51:00,
2013-06-11 12:52:00,82.8,23.0,29.65,SSE,162,2.7,2.7,11,0.00,,---,0.00,VWS V14.01,2013-06-11 16:52:00,
2013-06-11 12:53:00,82.9,23.1,29.65,East,99,2.2,3.6,11,0.00,,---,0.00,VWS V14.01,2013-06-11 16:53:00,
2013-06-11 12:55:00,83.1,23.2,29.65,North,5,4.0,5.4,11,0.00,,---,0.00,VWS V14.01,2013-06-11 16:55:00,
2013-06-11 12:56:00,82.9,18.4,29.65,West,275,4.0,4.0,9,0.00,,---,0.00,VWS V14.01,2013-06-11 16:56:00,
2013-06-11 12:57:00,82.6,22.8,29.65,WSW,257,4.9,5.4,11,0.00,,---,0.00,VWS V14.01,2013-06-11 16:57:00,
2013-06-11 12:58:00,82.6,22.8,29.65,NNW,332,2.7,5.4,11,0.00,,---,0.00,VWS V14.01,2013-06-11 16:58:00,
2013-06-11 13:00:00,82.8,23.0,29.65,SE,138,3.1,3.1,11,0.00,,---,0.00,VWS V14.01,2013-06-11 17:00:00,
2013-06-11 13:02:00,82.9,28.9,29.65,SE,124,2.7,4.9,14,0.00,,---,0.00,VWS V14.01,2013-06-11 17:02:00,
2013-06-11 13:03:00,83.1,23.2,29.65,SW,222,3.1,3.1,11,0.00,,---,0.00,VWS V14.01,2013-06-11 17:03:00,
2013-06-11 13:05:00,83.7,23.6,29.65,North,357,3.6,3.6,11,0.00,,---,0.00,VWS V14.01,2013-06-11 17:05:00,
2013-06-11 13:07:00,83.7,23.6,29.65,ESE,105,2.7,2.7,11,0.00,,---,0.00,VWS V14.01,2013-06-11 17:07:00,
2013-06-11 13:08:00,83.8,19.0,29.65,ENE,60,2.7,2.7,9,0.00,,---,0.00,VWS V14.01,2013-06-11 17:08:00,
2013-06-11 13:10:00,84.2,24.0,29.65,SE,127,0.0,3.6,11,0.00,,---,0.00,VWS V14.01,2013-06-11 17:10:00,
2013-06-11 13:12:00,84.2,16.6,29.65,East,84,4.9,6.3,8,0.00,,---,0.00,VWS V14.01,2013-06-11 17:12:00,
2013-06-11 13:13:00,84.6,24.3,29.65,South,189,6.3,6.3,11,0.00,,---,0.00,VWS V14.01,2013-06-11 17:13:00,
2013-06-11 13:15:00,84.6,16.9,29.65,NE,50,3.6,4.9,8,0.00,,---,0.00,VWS V14.01,2013-06-11 17:15:00,
2013-06-11 13:17:00,84.6,16.9,29.65,WNW,289,0.0,0.0,8,0.00,,---,0.00,VWS V14.01,2013-06-11 17:17:00,
2013-06-11 13:18:00,84.6,16.9,29.65,WNW,299,3.6,3.6,8,0.00,,---,0.00,VWS V14.01,2013-06-11 17:18:00,
2013-06-11 13:19:00,84.4,16.7,29.65,West,275,3.1,4.0,8,0.00,,---,0.00,VWS V14.01,2013-06-11 17:19:00,
2013-06-11 13:21:00,84.4,16.7,29.65,WNW,297,2.7,3.6,8,0.00,,---,0.00,VWS V14.01,2013-06-11 17:21:00,
2013-06-11 13:22:00,84.2,16.6,29.65,NW,324,3.1,3.1,8,0.00,,---,0.00,VWS V14.01,2013-06-11 17:22:00,
2013-06-11 13:23:00,84.2,16.6,29.65,South,170,2.2,6.3,8,0.00,,---,0.00,VWS V14.01,2013-06-11 17:23:00,
2013-06-11 13:24:00,84.0,19.2,29.65,SW,225,6.3,6.3,9,0.00,,---,0.00,VWS V14.01,2013-06-11 17:24:00,
2013-06-11 13:26:00,84.2,16.6,29.65,South,173,3.1,3.1,8,0.00,,---,0.00,VWS V14.01,2013-06-11 17:26:00,
2013-06-11 13:27:00,84.0,19.2,29.65,South,188,2.7,3.6,9,0.00,,---,0.00,VWS V14.01,2013-06-11 17:27:00,
2013-06-11 13:28:00,84.0,19.2,29.65,SSE,166,2.7,3.6,9,0.00,,---,0.00,VWS V14.01,2013-06-11 17:28:00,
2013-06-11 13:29:00,84.0,19.2,29.65,NW,304,4.0,4.0,9,0.00,,---,0.00,VWS V14.01,2013-06-11 17:29:00,
2013-06-11 13:31:00,84.0,19.2,29.65,SW,217,2.7,2.7,9,0.00,,---,0.00,VWS V14.01,2013-06-11 17:31:00,
2013-06-11 13:32:00,83.8,19.0,29.65,WSW,244,4.9,4.9,9,0.00,,---,0.00,VWS V14.01,2013-06-11 17:32:00,
2013-06-11 13:33:00,83.8,19.0,29.65,WNW,298,4.9,4.9,9,0.00,,---,0.00,VWS V14.01,2013-06-11 17:33:00,
2013-06-11 13:34:00,83.8,19.0,29.65,ESE,113,3.6,3.6,9,0.00,,---,0.00,VWS V14.01,2013-06-11 17:34:00,
2013-06-11 13:36:00,83.7,18.9,29.65,SSW,208,3.6,4.9,9,0.00,,---,0.00,VWS V14.01,2013-06-11 17:36:00,
2013-06-11 13:38:00,83.7,18.9,29.65,WSW,249,4.9,11.4,9,0.00,,---,0.00,VWS V14.01,2013-06-11 17:38:00,
2013-06-11 13:40:00,83.5,18.8,29.65,ENE,68,3.6,3.6,9,0.00,,---,0.00,VWS V14.01,2013-06-11 17:40:00,
2013-06-11 13:41:00,83.5,18.8,29.65,SE,129,2.7,2.7,9,0.00,,---,0.00,VWS V14.01,2013-06-11 17:41:00,
2013-06-11 13:43:00,83.8,23.8,29.65,SE,139,3.1,3.1,11,0.00,,---,0.00,VWS V14.01,2013-06-11 17:43:00,
2013-06-11 13:45:00,84.2,24.0,29.65,ENE,75,3.6,3.6,11,0.00,,---,0.00,VWS V14.01,2013-06-11 17:45:00,
2013-06-11 13:46:00,84.4,16.7,29.65,SW,228,3.1,4.0,8,0.00,,---,0.00,VWS V14.01,2013-06-11 17:46:00,
2013-06-11 13:48:00,85.1,17.2,29.65,ESE,116,2.7,2.7,8,0.00,,---,0.00,VWS V14.01,2013-06-11 17:48:00,
2013-06-11 13:50:00,85.5,25.0,29.65,South,190,2.7,2.7,11,0.00,,---,0.00,VWS V14.01,2013-06-11 17:50:00,
2013-06-11 13:51:00,85.5,17.5,29.65,ESE,122,3.1,3.6,8,0.00,,---,0.00,VWS V14.01,2013-06-11 17:51:00,
2013-06-11 13:53:00,85.6,17.6,29.65,ENE,69,3.6,3.6,8,0.00,,---,0.00,VWS V14.01,2013-06-11 17:53:00,
2013-06-11 13:55:00,85.6,17.6,29.65,South,180,2.7,3.6,8,0.00,,---,0.00,VWS V14.01,2013-06-11 17:55:00,
2013-06-11 13:56:00,85.8,17.8,29.65,East,95,0.0,5.4,8,0.00,,---,0.00,VWS V14.01,2013-06-11 17:56:00,
2013-06-11 13:58:00,85.8,17.8,29.65,ESE,102,3.1,3.6,8,0.00,,---,0.00,VWS V14.01,2013-06-11 17:58:00,
2013-06-11 13:59:00,85.8,17.8,29.65,East,80,2.7,4.0,8,0.00,,---,0.00,VWS V14.01,2013-06-11 17:59:00,
2013-06-11 14:00:00,85.6,17.6,29.65,SW,216,6.3,6.3,8,0.00,,---,0.00,VWS V14.01,2013-06-11 18:00:00,
2013-06-11 14:01:00,85.5,17.5,29.65,NNW,343,5.8,5.8,8,0.00,,---,0.00,VWS V14.01,2013-06-11 18:01:00,
2013-06-11 14:03:00,85.1,17.2,29.65,SSW,200,2.7,3.6,8,0.00,,---,0.00,VWS V14.01,2013-06-11 18:03:00,
2013-06-11 14:04:00,84.9,17.1,29.65,SW,216,3.1,3.1,8,0.00,,---,0.00,VWS V14.01,2013-06-11 18:04:00,
2013-06-11 14:06:00,84.6,16.9,29.65,North,353,3.1,3.1,8,0.00,,---,0.00,VWS V14.01,2013-06-11 18:06:00,
2013-06-11 14:07:00,84.4,16.7,29.65,SW,220,3.6,4.0,8,0.00,,---,0.00,VWS V14.01,2013-06-11 18:07:00,
2013-06-11 14:08:00,84.2,24.0,29.65,SSE,162,4.0,5.8,11,0.00,,---,0.00,VWS V14.01,2013-06-11 18:08:00,
2013-06-11 14:09:00,84.0,19.2,29.65,ESE,122,4.0,5.8,9,0.00,,---,0.00,VWS V14.01,2013-06-11 18:09:00,
2013-06-11 14:11:00,83.8,19.0,29.65,ENE,60,2.2,3.1,9,0.00,,---,0.00,VWS V14.01,2013-06-11 18:11:00,
2013-06-11 14:12:00,83.8,19.0,29.65,SSW,199,3.6,4.9,9,0.00,,---,0.00,VWS V14.01,2013-06-11 18:12:00,
2013-06-11 14:13:00,83.8,19.0,29.65,South,180,0.0,2.7,9,0.00,,---,0.00,VWS V14.01,2013-06-11 18:13:00,
2013-06-11 14:14:00,83.8,23.8,29.65,East,82,3.6,3.6,11,0.00,,---,0.00,VWS V14.01,2013-06-11 18:14:00,
2013-06-11 14:16:00,84.0,19.2,29.65,SW,234,2.2,3.6,9,0.00,,---,0.00,VWS V14.01,2013-06-11 18:16:00,
2013-06-11 14:17:00,84.4,16.7,29.65,SW,236,0.0,2.2,8,0.00,,---,0.00,VWS V14.01,2013-06-11 18:17:00,
2013-06-11 14:18:00,84.6,16.9,29.65,SE,128,4.0,4.0,8,0.00,,---,0.00,VWS V14.01,2013-06-11 18:18:00,
2013-06-11 14:19:00,84.7,17.0,29.65,SE,128,4.0,4.0,8,0.00,,---,0.00,VWS V14.01,2013-06-11 18:19:00,
2013-06-11 14:21:00,84.9,17.1,29.65,SSW,204,5.4,5.4,8,0.00,,---,0.00,VWS V14.01,2013-06-11 18:21:00,
2013-06-11 14:22:00,84.9,17.1,29.65,SSW,207,3.1,4.0,8,0.00,,---,0.00,VWS V14.01,2013-06-11 18:22:00,
2013-06-11 14:24:00,85.1,17.2,29.65,ESE,104,3.1,4.9,8,0.00,,---,0.00,VWS V14.01,2013-06-11 18:24:00,
2013-06-11 14:26:00,85.1,17.2,29.65,South,187,5.8,5.8,8,0.00,,---,0.00,VWS V14.01,2013-06-11 18:26:00,
2013-06-11 14:27:00,85.3,17.4,29.65,South,184,4.0,4.0,8,0.00,,---,0.00,VWS V14.01,2013-06-11 18:27:00,
2013-06-11 14:29:00,85.5,17.5,29.65,WNW,294,3.1,3.6,8,0.00,,---,0.00,VWS V14.01,2013-06-11 18:29:00,
2013-06-11 14:32:00,85.6,17.6,29.65,SSW,197,2.2,3.6,8,0.00,,---,0.00,VWS V14.01,2013-06-11 18:32:00,
2013-06-11 14:34:00,85.8,17.8,29.65,NW,320,8.3,8.3,8,0.00,,---,0.00,VWS V14.01,2013-06-11 18:34:00,
2013-06-11 14:35:00,85.8,17.8,29.65,NNE,18,2.7,8.3,8,0.00,,---,0.00,VWS V14.01,2013-06-11 18:35:00,
2013-06-11 14:37:00,86.0,17.9,29.65,WSW,240,0.0,3.6,8,0.00,,---,0.00,VWS V14.01,2013-06-11 18:37:00,
2013-06-11 14:39:00,86.0,17.9,29.65,ENE,60,3.1,3.1,8,0.00,,---,0.00,VWS V14.01,2013-06-11 18:39:00,
2013-06-11 14:40:00,86.2,18.0,29.65,SSE,157,3.1,3.1,8,0.00,,---,0.00,VWS V14.01,2013-06-11 18:40:00,
2013-06-11 14:42:00,86.2,18.0,29.59,SSE,167,3.1,3.1,8,0.00,,---,0.00,VWS V14.01,2013-06-11 18:42:00,
2013-06-11 14:44:00,86.5,18.3,29.59,West,273,5.4,5.4,8,0.00,,---,0.00,VWS V14.01,2013-06-11 18:44:00,
2013-06-11 14:45:00,86.7,18.5,29.59,SW,214,2.7,6.3,8,0.00,,---,0.00,VWS V14.01,2013-06-11 18:45:00,
2013-06-11 14:47:00,86.4,18.2,29.59,NNW,330,8.1,8.1,8,0.00,,---,0.00,VWS V14.01,2013-06-11 18:47:00,
2013-06-11 14:49:00,86.4,18.2,29.59,SE,133,2.7,3.1,8,0.00,,---,0.00,VWS V14.01,2013-06-11 18:49:00,
2013-06-11 14:50:00,86.0,17.9,29.59,SW,224,3.1,3.1,8,0.00,,---,0.00,VWS V14.01,2013-06-11 18:50:00,
2013-06-11 14:52:00,86.2,18.0,29.59,SW,234,3.6,5.8,8,0.00,,---,0.00,VWS V14.01,2013-06-11 18:52:00,
2013-06-11 14:53:00,86.2,18.0,29.59,SW,234,2.2,2.7,8,0.00,,---,0.00,VWS V14.01,2013-06-11 18:53:00,
2013-06-11 14:54:00,86.2,18.0,29.59,NW,314,3.1,3.1,8,0.00,,---,0.00,VWS V14.01,2013-06-11 18:54:00,
2013-06-11 14:55:00,86.2,18.0,29.59,ESE,119,2.7,3.1,8,0.00,,---,0.00,VWS V14.01,2013-06-11 18:55:00,
2013-06-11 14:58:00,86.2,18.0,29.59,South,186,2.7,8.7,8,0.00,,---,0.00,VWS V14.01,2013-06-11 18:58:00,
2013-06-11 14:59:00,86.2,18.0,29.59,ENE,65,2.7,3.6,8,0.00,,---,0.00,VWS V14.01,2013-06-11 18:59:00,
2013-06-11 15:00:00,86.0,17.9,29.59,WNW,295,3.6,3.6,8,0.00,,---,0.00,VWS V14.01,2013-06-11 19:00:00,
2013-06-11 15:03:00,85.5,17.5,29.59,SW,226,2.7,5.4,8,0.00,,---,0.00,VWS V14.01,2013-06-11 19:03:00,
2013-06-11 15:04:00,85.5,17.5,29.59,SSW,193,3.6,3.6,8,0.00,,---,0.00,VWS V14.01,2013-06-11 19:04:00,
2013-06-11 15:05:00,85.5,17.5,29.59,ESE,118,4.0,4.9,8,0.00,,---,0.00,VWS V14.01,2013-06-11 19:05:00,
2013-06-11 15:08:00,85.3,17.4,29.59,SSE,166,2.2,2.7,8,0.00,,---,0.00,VWS V14.01,2013-06-11 19:08:00,
2013-06-11 15:09:00,85.3,17.4,29.59,SSW,192,5.8,5.8,8,0.00,,---,0.00,VWS V14.01,2013-06-11 19:09:00,
2013-06-11 15:10:00,85.3,17.4,29.59,NE,36,0.0,3.6,8,0.00,,---,0.00,VWS V14.01,2013-06-11 19:10:00,
2013-06-11 15:11:00,85.5,17.5,29.59,NE,36,0.0,3.6,8,0.00,,---,0.00,VWS V14.01,2013-06-11 19:11:00,
2013-06-11 15:13:00,85.3,17.4,29.59,North,357,3.1,4.5,8,0.00,,---,0.00,VWS V14.01,2013-06-11 19:13:00,
2013-06-11 15:14:00,85.3,17.4,29.59,SSE,152,2.2,2.2,8,0.00,,---,0.00,VWS V14.01,2013-06-11 19:14:00,
2013-06-11 15:15:00,85.3,17.4,29.59,East,80,3.6,3.6,8,0.00,,---,0.00,VWS V14.01,2013-06-11 19:15:00,
2013-06-11 15:16:00,85.3,17.4,29.59,NW,319,3.1,3.6,8,0.00,,---,0.00,VWS V14.01,2013-06-11 19:16:00,
2013-06-11 15:18:00,85.5,17.5,29.59,ENE,72,4.9,4.9,8,0.00,,---,0.00,VWS V14.01,2013-06-11 19:18:00,
2013-06-11 15:19:00,85.5,17.5,29.59,South,174,3.1,4.9,8,0.00,,---,0.00,VWS V14.01,2013-06-11 19:19:00,
2013-06-11 15:20:00,85.6,17.6,29.59,West,261,3.6,3.6,8,0.00,,---,0.00,VWS V14.01,2013-06-11 19:20:00,
2013-06-11 15:21:00,85.6,17.6,29.59,ESE,104,3.1,3.1,8,0.00,,---,0.00,VWS V14.01,2013-06-11 19:21:00,
2013-06-11 15:23:00,86.4,18.2,29.59,East,97,2.7,2.7,8,0.00,,---,0.00,VWS V14.01,2013-06-11 19:23:00,
2013-06-11 15:24:00,86.5,18.3,29.59,South,188,3.1,3.1,8,0.00,,---,0.00,VWS V14.01,2013-06-11 19:24:00,
2013-06-11 15:25:00,86.7,18.5,29.59,WNW,302,4.9,4.9,8,0.00,,---,0.00,VWS V14.01,2013-06-11 19:25:00,
2013-06-11 15:26:00,86.9,18.6,29.59,NE,44,2.2,2.2,8,0.00,,---,0.00,VWS V14.01,2013-06-11 19:26:00,
2013-06-11 15:28:00,87.1,18.7,29.59,North,0,4.0,4.0,8,0.00,,---,0.00,VWS V14.01,2013-06-11 19:28:00,
2013-06-11 15:30:00,87.1,18.7,29.59,SSW,206,3.1,4.9,8,0.00,,---,0.00,VWS V14.01,2013-06-11 19:30:00,
2013-06-11 15:31:00,87.1,18.7,29.59,SSW,206,2.7,2.7,8,0.00,,---,0.00,VWS V14.01,2013-06-11 19:31:00,
2013-06-11 15:32:00,87.1,18.7,29.59,North,357,5.4,5.4,8,0.00,,---,0.00,VWS V14.01,2013-06-11 19:32:00,
2013-06-11 15:33:00,86.5,18.3,29.59,NNW,338,4.0,5.8,8,0.00,,---,0.00,VWS V14.01,2013-06-11 19:33:00,
2013-06-11 15:35:00,86.4,18.2,29.59,WSW,243,2.7,6.3,8,0.00,,---,0.00,VWS V14.01,2013-06-11 19:35:00,
2013-06-11 15:37:00,86.4,18.2,29.59,SSE,153,0.0,4.0,8,0.00,,---,0.00,VWS V14.01,2013-06-11 19:37:00,
2013-06-11 15:39:00,86.5,18.3,29.59,NNW,332,3.1,3.1,8,0.00,,---,0.00,VWS V14.01,2013-06-11 19:39:00,
2013-06-11 15:40:00,86.9,18.6,29.59,NNW,337,3.6,4.5,8,0.00,,---,0.00,VWS V14.01,2013-06-11 19:40:00,
2013-06-11 15:42:00,86.9,18.6,29.59,NNW,342,4.9,5.8,8,0.00,,---,0.00,VWS V14.01,2013-06-11 19:42:00,
2013-06-11 15:44:00,86.7,18.5,29.59,SSW,192,3.1,4.9,8,0.00,,---,0.00,VWS V14.01,2013-06-11 19:44:00,
2013-06-11 15:45:00,86.4,18.2,29.59,SW,218,5.8,5.8,8,0.00,,---,0.00,VWS V14.01,2013-06-11 19:45:00,
2013-06-11 15:47:00,85.8,17.8,29.59,NW,316,4.0,6.3,8,0.00,,---,0.00,VWS V14.01,2013-06-11 19:47:00,
2013-06-11 15:49:00,85.1,17.2,29.59,NW,326,3.6,3.6,8,0.00,,---,0.00,VWS V14.01,2013-06-11 19:49:00,
2013-06-11 15:51:00,84.7,17.0,29.59,ENE,63,2.2,2.7,8,0.00,,---,0.00,VWS V14.01,2013-06-11 19:51:00,
2013-06-11 15:52:00,84.6,16.9,29.59,South,170,4.0,4.0,8,0.00,,---,0.00,VWS V14.01,2013-06-11 19:52:00,
2013-06-11 15:54:00,84.4,16.7,29.59,West,260,0.0,0.0,8,0.00,,---,0.00,VWS V14.01,2013-06-11 19:54:00,
2013-06-11 15:57:00,84.2,16.6,29.59,ENE,69,3.1,3.1,8,0.00,,---,0.00,VWS V14.01,2013-06-11 19:57:00,
2013-06-11 15:59:00,83.8,19.0,29.59,NNE,26,2.2,3.1,9,0.00,,---,0.00,VWS V14.01,2013-06-11 19:59:00,
2013-06-11 16:02:00,83.3,18.6,29.59,NNE,28,5.4,5.4,9,0.00,,---,0.00,VWS V14.01,2013-06-11 20:02:00,
2013-06-11 16:04:00,83.1,18.5,29.59,ENE,75,0.0,2.7,9,0.00,,---,0.00,VWS V14.01,2013-06-11 20:04:00,
2013-06-11 16:07:00,82.9,18.4,29.59,SW,218,3.6,3.6,9,0.00,,---,0.00,VWS V14.01,2013-06-11 20:07:00,
2013-06-11 16:09:00,82.8,18.2,29.59,SW,235,2.7,2.7,9,0.00,,---,0.00,VWS V14.01,2013-06-11 20:09:00,
2013-06-11 16:12:00,82.6,18.1,29.59,WNW,287,2.2,3.1,9,0.00,,---,0.00,VWS V14.01,2013-06-11 20:12:00,
2013-06-11 16:13:00,82.6,18.1,29.59,WNW,300,2.2,3.1,9,0.00,,---,0.00,VWS V14.01,2013-06-11 20:13:00,
2013-06-11 16:14:00,82.4,18.0,29.59,SSE,165,0.0,3.1,9,0.00,,---,0.00,VWS V14.01,2013-06-11 20:14:00,
2013-06-11 16:17:00,82.8,18.2,29.59,NNW,332,3.1,3.1,9,0.00,,---,0.00,VWS V14.01,2013-06-11 20:17:00,
2013-06-11 16:18:00,82.8,18.2,29.59,WSW,254,3.6,3.6,9,0.00,,---,0.00,VWS V14.01,2013-06-11 20:18:00,
2013-06-11 16:19:00,82.9,18.4,29.59,WSW,254,0.0,0.0,9,0.00,,---,0.00,VWS V14.01,2013-06-11 20:19:00,
2013-06-11 16:22:00,84.0,19.2,29.59,WNW,287,6.3,6.3,9,0.00,,---,0.00,VWS V14.01,2013-06-11 20:22:00,
2013-06-11 16:23:00,84.2,16.6,29.59,SSE,168,3.6,6.3,8,0.00,,---,0.00,VWS V14.01,2013-06-11 20:23:00,
2013-06-11 16:24:00,84.4,16.7,29.59,North,0,2.2,2.2,8,0.00,,---,0.00,VWS V14.01,2013-06-11 20:24:00,
2013-06-11 16:28:00,85.1,17.2,29.59,East,92,3.1,3.6,8,0.00,,---,0.00,VWS V14.01,2013-06-11 20:28:00,
2013-06-11 16:29:00,84.7,17.0,29.59,South,190,4.0,8.7,8,0.00,,---,0.00,VWS V14.01,2013-06-11 20:29:00,
2013-06-11 16:30:00,84.7,17.0,29.59,South,190,4.0,8.7,8,0.00,,---,0.00,VWS V14.01,2013-06-11 20:30:00,
2013-06-11 16:33:00,84.2,16.6,29.59,NW,310,2.2,2.2,8,0.00,,---,0.00,VWS V14.01,2013-06-11 20:33:00,
2013-06-11 16:34:00,83.8,19.0,29.59,South,179,4.0,4.0,9,0.00,,---,0.00,VWS V14.01,2013-06-11 20:34:00,
2013-06-11 16:35:00,83.8,19.0,29.59,ESE,104,4.0,4.9,9,0.00,,---,0.00,VWS V14.01,2013-06-11 20:35:00,
2013-06-11 16:38:00,83.5,18.8,29.59,North,353,2.2,3.6,9,0.00,,---,0.00,VWS V14.01,2013-06-11 20:38:00,
2013-06-11 16:39:00,83.5,18.8,29.59,NW,310,6.3,6.3,9,0.00,,---,0.00,VWS V14.01,2013-06-11 20:39:00,
2013-06-11 16:40:00,83.7,18.9,29.59,West,261,2.7,6.3,9,0.00,,---,0.00,VWS V14.01,2013-06-11 20:40:00,
2013-06-11 16:43:00,83.5,18.8,29.59,WNW,283,2.7,2.7,9,0.00,,---,0.00,VWS V14.01,2013-06-11 20:43:00,
2013-06-11 16:44:00,83.7,18.9,29.59,SW,229,2.7,3.6,9,0.00,,---,0.00,VWS V14.01,2013-06-11 20:44:00,
2013-06-11 16:45:00,83.7,18.9,29.59,South,184,3.6,5.4,9,0.00,,---,0.00,VWS V14.01,2013-06-11 20:45:00,
2013-06-11 16:46:00,83.7,18.9,29.59,SW,216,0.0,6.3,9,0.00,,---,0.00,VWS V14.01,2013-06-11 20:46:00,
2013-06-11 16:48:00,84.0,19.2,29.59,NNW,342,2.7,2.7,9,0.00,,---,0.00,VWS V14.01,2013-06-11 20:48:00,
2013-06-11 16:49:00,84.0,19.2,29.59,NNW,338,3.1,3.6,9,0.00,,---,0.00,VWS V14.01,2013-06-11 20:49:00,
2013-06-11 16:50:00,84.2,16.6,29.59,SSW,199,5.4,5.4,8,0.00,,---,0.00,VWS V14.01,2013-06-11 20:50:00,
2013-06-11 16:51:00,84.4,16.7,29.59,South,177,2.7,3.6,8,0.00,,---,0.00,VWS V14.01,2013-06-11 20:51:00,
2013-06-11 16:53:00,84.4,16.7,29.59,ENE,67,4.0,4.0,8,0.00,,---,0.00,VWS V14.01,2013-06-11 20:53:00,
2013-06-11 16:54:00,84.4,16.7,29.59,North,0,2.2,2.7,8,0.00,,---,0.00,VWS V14.01,2013-06-11 20:54:00,
2013-06-11 16:55:00,84.4,16.7,29.59,NNE,19,2.2,4.0,8,0.00,,---,0.00,VWS V14.01,2013-06-11 20:55:00,
2013-06-11 16:56:00,84.6,16.9,29.59,SSW,209,2.7,5.4,8,0.00,,---,0.00,VWS V14.01,2013-06-11 20:56:00,
2013-06-11 16:58:00,84.7,17.0,29.59,North,357,8.7,8.7,8,0.00,,---,0.00,VWS V14.01,2013-06-11 20:58:00,
2013-06-11 16:59:00,84.6,16.9,29.59,South,169,3.1,8.7,8,0.00,,---,0.00,VWS V14.01,2013-06-11 20:59:00,
2013-06-11 17:00:00,84.6,16.9,29.59,South,169,2.2,3.1,8,0.00,,---,0.00,VWS V14.01,2013-06-11 21:00:00,
2013-06-11 17:01:00,84.6,16.9,29.59,SW,234,3.1,3.1,8,0.00,,---,0.00,VWS V14.01,2013-06-11 21:01:00,
2013-06-11 17:03:00,84.4,16.7,29.59,SSW,213,3.1,3.1,8,0.00,,---,0.00,VWS V14.01,2013-06-11 21:03:00,
2013-06-11 17:04:00,84.2,16.6,29.59,SSW,203,2.7,4.9,8,0.00,,---,0.00,VWS V14.01,2013-06-11 21:04:00,
2013-06-11 17:05:00,84.2,16.6,29.59,SSW,202,2.2,4.9,8,0.00,,---,0.00,VWS V14.01,2013-06-11 21:05:00,
2013-06-11 17:06:00,83.8,19.0,29.59,WSW,250,4.0,4.0,9,0.00,,---,0.00,VWS V14.01,2013-06-11 21:06:00,
2013-06-11 17:08:00,83.5,18.8,29.59,SW,214,5.8,5.8,9,0.00,,---,0.00,VWS V14.01,2013-06-11 21:08:00,
2013-06-11 17:09:00,83.3,18.6,29.59,SW,214,2.2,2.2,9,0.00,,---,0.00,VWS V14.01,2013-06-11 21:09:00,
2013-06-11 17:10:00,83.1,18.5,29.59,North,1,2.7,2.7,9,0.00,,---,0.00,VWS V14.01,2013-06-11 21:10:00,
2013-06-11 17:12:00,82.9,18.4,29.59,WNW,284,2.7,2.7,9,0.00,,---,0.00,VWS V14.01,2013-06-11 21:12:00,
2013-06-11 17:13:00,82.9,18.4,29.59,NNE,25,3.6,3.6,9,0.00,,---,0.00,VWS V14.01,2013-06-11 21:13:00,
2013-06-11 17:14:00,82.8,18.2,29.59,ENE,61,3.1,3.1,9,0.00,,---,0.00,VWS V14.01,2013-06-11 21:14:00,
2013-06-11 17:15:00,82.8,18.2,29.59,West,274,2.2,3.6,9,0.00,,---,0.00,VWS V14.01,2013-06-11 21:15:00,
2013-06-11 17:17:00,82.4,18.0,29.59,SSW,193,3.6,3.6,9,0.00,,---,0.00,VWS V14.01,2013-06-11 21:17:00,
2013-06-11 17:18:00,82.4,18.0,29.59,SW,236,3.6,5.8,9,0.00,,---,0.00,VWS V14.01,2013-06-11 21:18:00,
2013-06-11 17:19:00,82.2,17.8,29.59,NNW,345,3.6,7.2,9,0.00,,---,0.00,VWS V14.01,2013-06-11 21:19:00,
2013-06-11 17:20:00,82.0,17.7,29.59,NW,308,3.6,3.6,9,0.00,,---,0.00,VWS V14.01,2013-06-11 21:20:00,
2013-06-11 17:22:00,81.9,17.6,29.59,North,357,3.1,8.3,9,0.00,,---,0.00,VWS V14.01,2013-06-11 21:22:00,
2013-06-11 17:23:00,81.7,17.4,29.59,SSE,168,5.8,6.3,9,0.00,,---,0.00,VWS V14.01,2013-06-11 21:23:00,
2013-06-11 17:24:00,81.7,17.4,29.59,SE,145,3.6,4.9,9,0.00,,---,0.00,VWS V14.01,2013-06-11 21:24:00,
2013-06-11 17:25:00,81.7,17.4,29.59,SE,145,0.0,2.2,9,0.00,,---,0.00,VWS V14.01,2013-06-11 21:25:00,
2013-06-11 17:26:00,81.7,17.4,29.59,ESE,123,2.2,2.7,9,0.00,,---,0.00,VWS V14.01,2013-06-11 21:26:00,
2013-06-11 17:27:00,81.9,17.6,29.59,South,172,3.1,3.1,9,0.00,,---,0.00,VWS V14.01,2013-06-11 21:27:00,
2013-06-11 17:29:00,81.9,17.6,29.59,WSW,246,8.7,8.7,9,0.00,,---,0.00,VWS V14.01,2013-06-11 21:29:00,
2013-06-11 17:30:00,81.9,17.6,29.59,North,353,4.9,4.9,9,0.00,,---,0.00,VWS V14.01,2013-06-11 21:30:00,
2013-06-11 17:31:00,81.9,17.6,29.59,South,172,2.7,3.1,9,0.00,,---,0.00,VWS V14.01,2013-06-11 21:31:00,
2013-06-11 17:32:00,81.7,17.4,29.59,NE,37,2.7,3.6,9,0.00,,---,0.00,VWS V14.01,2013-06-11 21:32:00,
2013-06-11 17:34:00,81.7,17.4,29.59,NW,305,4.0,4.0,9,0.00,,---,0.00,VWS V14.01,2013-06-11 21:34:00,
2013-06-11 17:35:00,81.5,17.3,29.59,WNW,285,2.7,4.0,9,0.00,,---,0.00,VWS V14.01,2013-06-11 21:35:00,
2013-06-11 17:37:00,81.5,17.3,29.59,SSW,193,2.7,2.7,9,0.00,,---,0.00,VWS V14.01,2013-06-11 21:37:00,
2013-06-11 17:38:00,81.5,17.3,29.59,NNE,17,4.0,4.0,9,0.00,,---,0.00,VWS V14.01,2013-06-11 21:38:00,
2013-06-11 17:40:00,81.7,17.4,29.59,North,353,2.7,3.1,9,0.00,,---,0.00,VWS V14.01,2013-06-11 21:40:00,
2013-06-11 17:41:00,81.7,17.4,29.59,North,353,2.7,2.7,9,0.00,,---,0.00,VWS V14.01,2013-06-11 21:41:00,
2013-06-11 17:42:00,81.7,17.4,29.59,ESE,118,2.7,3.1,9,0.00,,---,0.00,VWS V14.01,2013-06-11 21:42:00,
2013-06-11 17:43:00,81.7,17.4,29.59,NE,34,4.0,4.0,9,0.00,,---,0.00,VWS V14.01,2013-06-11 21:43:00,
2013-06-11 17:45:00,81.5,17.3,29.59,West,259,2.2,4.0,9,0.00,,---,0.00,VWS V14.01,2013-06-11 21:45:00,
2013-06-11 17:46:00,81.5,17.3,29.59,SW,219,5.4,5.4,9,0.00,,---,0.00,VWS V14.01,2013-06-11 21:46:00,
2013-06-11 17:47:00,81.5,17.3,29.59,SSW,205,4.0,4.0,9,0.00,,---,0.00,VWS V14.01,2013-06-11 21:47:00,
2013-06-11 17:48:00,81.5,17.3,29.59,ESE,119,2.7,4.9,9,0.00,,---,0.00,VWS V14.01,2013-06-11 21:48:00,
2013-06-11 17:50:00,81.3,17.1,29.59,North,1,7.6,7.6,9,0.00,,---,0.00,VWS V14.01,2013-06-11 21:50:00,
2013-06-11 17:51:00,81.1,17.0,29.59,NW,319,2.7,7.6,9,0.00,,---,0.00,VWS V14.01,2013-06-11 21:51:00,
2013-06-11 17:52:00,81.0,16.9,29.59,WNW,289,3.6,3.6,9,0.00,,---,0.00,VWS V14.01,2013-06-11 21:52:00,
2013-06-11 17:53:00,81.0,16.9,29.59,NNW,328,2.2,2.2,9,0.00,,---,0.00,VWS V14.01,2013-06-11 21:53:00,
2013-06-11 17:55:00,80.8,16.7,29.59,West,269,3.1,4.5,9,0.00,,---,0.00,VWS V14.01,2013-06-11 21:55:00,
2013-06-11 17:56:00,80.8,16.7,29.59,West,268,0.0,2.7,9,0.00,,---,0.00,VWS V14.01,2013-06-11 21:56:00,
2013-06-11 17:57:00,80.8,16.7,29.59,NE,39,5.4,5.4,9,0.00,,---,0.00,VWS V14.01,2013-06-11 21:57:00,
2013-06-11 17:58:00,80.6,16.6,29.59,WSW,246,2.2,5.4,9,0.00,,---,0.00,VWS V14.01,2013-06-11 21:58:00,
2013-06-11 18:00:00,80.6,16.6,29.56,NNE,12,3.1,3.1,9,0.00,,---,0.00,VWS V14.01,2013-06-11 22:00:00,
2013-06-11 18:02:00,80.4,18.9,29.56,NNE,20,2.2,3.1,10,0.00,,---,0.00,VWS V14.01,2013-06-11 22:02:00,
2013-06-11 18:03:00,80.4,18.9,29.56,North,357,2.2,2.2,10,0.00,,---,0.00,VWS V14.01,2013-06-11 22:03:00,
2013-06-11 18:05:00,80.4,18.9,29.56,NNW,343,0.0,0.0,10,0.00,,---,0.00,VWS V14.01,2013-06-11 22:05:00,
2013-06-11 18:07:00,80.4,18.9,29.59,WSW,247,0.0,0.0,10,0.00,,---,0.00,VWS V14.01,2013-06-11 22:07:00,
2013-06-11 18:08:00,80.6,16.6,29.59,East,86,4.0,4.0,9,0.00,,---,0.00,VWS V14.01,2013-06-11 22:08:00,
2013-06-11 18:10:00,80.6,16.6,29.59,NNW,327,2.7,3.1,9,0.00,,---,0.00,VWS V14.01,2013-06-11 22:10:00,
2013-06-11 18:12:00,80.6,16.6,29.59,North,357,2.7,3.6,9,0.00,,---,0.00,VWS V14.01,2013-06-11 22:12:00,
2013-06-11 18:13:00,80.8,16.7,29.59,SSW,207,4.0,4.0,9,0.00,,---,0.00,VWS V14.01,2013-06-11 22:13:00,
2013-06-11 18:15:00,80.8,16.7,29.59,West,263,4.0,4.0,9,0.00,,---,0.00,VWS V14.01,2013-06-11 22:15:00,
2013-06-11 18:17:00,80.8,16.7,29.59,NW,320,0.0,0.0,9,0.00,,---,0.00,VWS V14.01,2013-06-11 22:17:00,
2013-06-11 18:18:00,80.6,16.6,29.59,South,191,2.2,2.2,9,0.00,,---,0.00,VWS V14.01,2013-06-11 22:18:00,
2013-06-11 18:19:00,80.6,16.6,29.59,West,268,2.7,2.7,9,0.00,,---,0.00,VWS V14.01,2013-06-11 22:19:00,
2013-06-11 18:21:00,80.6,16.6,29.59,WNW,283,2.2,4.0,9,0.00,,---,0.00,VWS V14.01,2013-06-11 22:21:00,
2013-06-11 18:22:00,80.4,18.9,29.56,West,271,0.0,2.2,10,0.00,,---,0.00,VWS V14.01,2013-06-11 22:22:00,
2013-06-11 18:23:00,80.4,18.9,29.56,West,271,0.0,2.2,10,0.00,,---,0.00,VWS V14.01,2013-06-11 22:23:00,
2013-06-11 18:24:00,80.4,18.9,29.56,West,271,0.0,0.0,10,0.00,,---,0.00,VWS V14.01,2013-06-11 22:24:00,
2013-06-11 18:26:00,80.2,18.8,29.56,ESE,115,0.0,0.0,10,0.00,,---,0.00,VWS V14.01,2013-06-11 22:26:00,
2013-06-11 18:28:00,80.2,18.8,29.56,ESE,115,0.0,0.0,10,0.00,,---,0.00,VWS V14.01,2013-06-11 22:28:00,
2013-06-11 18:29:00,80.2,18.8,29.56,ENE,70,0.0,0.0,10,0.00,,---,0.00,VWS V14.01,2013-06-11 22:29:00,
2013-06-11 18:31:00,80.1,22.9,29.56,SSW,204,0.0,4.9,12,0.00,,---,0.00,VWS V14.01,2013-06-11 22:31:00,
2013-06-11 18:33:00,80.1,22.9,29.56,NW,311,3.1,3.1,12,0.00,,---,0.00,VWS V14.01,2013-06-11 22:33:00,
2013-06-11 18:34:00,80.1,22.9,29.56,WNW,298,0.0,2.7,12,0.00,,---,0.00,VWS V14.01,2013-06-11 22:34:00,
2013-06-11 18:36:00,79.9,22.8,29.56,West,267,2.7,4.0,12,0.00,,---,0.00,VWS V14.01,2013-06-11 22:36:00,
2013-06-11 18:38:00,79.9,22.8,29.56,NNE,29,2.2,2.7,12,0.00,,---,0.00,VWS V14.01,2013-06-11 22:38:00,
2013-06-11 18:39:00,79.9,22.8,29.56,NNE,29,0.0,2.7,12,0.00,,---,0.00,VWS V14.01,2013-06-11 22:39:00,
2013-06-11 18:42:00,79.9,22.8,29.56,WSW,246,0.0,0.0,12,0.00,,---,0.00,VWS V14.01,2013-06-11 22:42:00,
2013-06-11 18:43:00,79.9,22.8,29.56,WSW,248,0.0,0.0,12,0.00,,---,0.00,VWS V14.01,2013-06-11 22:43:00,
2013-06-11 18:44:00,79.9,22.8,29.56,WSW,248,0.0,0.0,12,0.00,,---,0.00,VWS V14.01,2013-06-11 22:44:00,
2013-06-11 18:47:00,79.9,22.8,29.56,ESE,115,0.0,3.1,12,0.00,,---,0.00,VWS V14.01,2013-06-11 22:47:00,
2013-06-11 18:48:00,79.7,22.6,29.56,SW,235,3.6,4.0,12,0.00,,---,0.00,VWS V14.01,2013-06-11 22:48:00,
2013-06-11 18:49:00,79.7,22.6,29.56,SW,230,4.9,6.3,12,0.00,,---,0.00,VWS V14.01,2013-06-11 22:49:00,
2013-06-11 18:52:00,79.5,22.5,29.56,NW,318,2.7,3.1,12,0.00,,---,0.00,VWS V14.01,2013-06-11 22:52:00,
2013-06-11 18:53:00,79.5,22.5,29.56,North,357,0.0,0.0,12,0.00,,---,0.00,VWS V14.01,2013-06-11 22:53:00,
2013-06-11 18:54:00,79.3,22.4,29.56,NNE,13,0.0,0.0,12,0.00,,---,0.00,VWS V14.01,2013-06-11 22:54:00,
2013-06-11 18:57:00,79.3,22.4,29.56,NW,320,0.0,2.7,12,0.00,,---,0.00,VWS V14.01,2013-06-11 22:57:00,
2013-06-11 18:58:00,79.3,22.4,29.56,ENE,77,0.0,0.0,12,0.00,,---,0.00,VWS V14.01,2013-06-11 22:58:00,
2013-06-11 18:59:00,79.2,22.2,29.56,NW,309,4.0,4.0,12,0.00,,---,0.00,VWS V14.01,2013-06-11 22:59:00,
2013-06-11 19:02:00,79.2,22.2,29.56,SW,218,0.0,3.6,12,0.00,,---,0.00,VWS V14.01,2013-06-11 23:02:00,
2013-06-11 19:04:00,79.2,22.2,29.56,SW,218,0.0,0.0,12,0.00,,---,0.00,VWS V14.01,2013-06-11 23:04:00,
2013-06-11 19:07:00,79.0,22.1,29.59,North,9,2.2,2.2,12,0.00,,---,0.00,VWS V14.01,2013-06-11 23:07:00,
2013-06-11 19:09:00,79.0,22.1,29.59,NW,326,2.7,3.1,12,0.00,,---,0.00,VWS V14.01,2013-06-11 23:09:00,
2013-06-11 19:10:00,79.0,22.1,29.59,SSW,212,0.0,3.6,12,0.00,,---,0.00,VWS V14.01,2013-06-11 23:10:00,
2013-06-11 19:12:00,78.8,22.0,29.59,South,185,0.0,2.2,12,0.00,,---,0.00,VWS V14.01,2013-06-11 23:12:00,
2013-06-11 19:14:00,79.0,27.4,29.59,North,353,0.0,2.7,15,0.00,,---,0.00,VWS V14.01,2013-06-11 23:14:00,
2013-06-11 19:15:00,78.8,27.3,29.59,NW,306,3.6,3.6,15,0.00,,---,0.00,VWS V14.01,2013-06-11 23:15:00,
2013-06-11 19:17:00,78.8,22.0,29.59,WNW,300,7.6,11.0,12,0.00,,---,0.00,VWS V14.01,2013-06-11 23:17:00,
2013-06-11 19:19:00,78.6,23.7,29.59,NNW,348,2.7,6.7,13,0.00,,---,0.00,VWS V14.01,2013-06-11 23:19:00,
2013-06-11 19:20:00,78.6,23.7,29.59,West,272,0.0,3.1,13,0.00,,---,0.00,VWS V14.01,2013-06-11 23:20:00,
2013-06-11 19:23:00,78.8,22.0,29.59,SSE,166,3.6,3.6,12,0.00,,---,0.00,VWS V14.01,2013-06-11 23:23:00,
2013-06-11 19:24:00,78.8,22.0,29.59,NW,308,0.0,3.6,12,0.00,,---,0.00,VWS V14.01,2013-06-11 23:24:00,
2013-06-11 19:25:00,78.6,23.7,29.59,NW,308,0.0,0.0,13,0.00,,---,0.00,VWS V14.01,2013-06-11 23:25:00,
2013-06-11 19:28:00,78.6,23.7,29.59,North,350,3.1,3.1,13,0.00,,---,0.00,VWS V14.01,2013-06-11 23:28:00,
2013-06-11 19:29:00,78.6,23.7,29.59,North,350,3.1,3.1,13,0.00,,---,0.00,VWS V14.01,2013-06-11 23:29:00,
2013-06-11 19:30:00,78.6,27.1,29.59,North,350,0.0,3.1,15,0.00,,---,0.00,VWS V14.01,2013-06-11 23:30:00,
2013-06-11 19:33:00,78.4,27.0,29.59,SSW,194,0.0,3.6,15,0.00,,---,0.00,VWS V14.01,2013-06-11 23:33:00,
2013-06-11 19:34:00,78.4,27.0,29.59,WSW,240,2.7,3.1,15,0.00,,---,0.00,VWS V14.01,2013-06-11 23:34:00,
2013-06-11 19:35:00,78.3,26.9,29.59,NNE,31,2.2,2.2,15,0.00,,---,0.00,VWS V14.01,2013-06-11 23:35:00,
2013-06-11 19:38:00,78.1,26.7,29.59,SSW,192,2.7,3.1,15,0.00,,---,0.00,VWS V14.01,2013-06-11 23:38:00,
2013-06-11 19:40:00,78.1,23.3,29.59,West,272,0.0,4.0,13,0.00,,---,0.00,VWS V14.01,2013-06-11 23:40:00,
2013-06-11 19:43:00,77.9,23.1,29.59,West,272,0.0,0.0,13,0.00,,---,0.00,VWS V14.01,2013-06-11 23:43:00,
2013-06-11 19:45:00,77.9,26.6,29.59,West,279,3.1,3.1,15,0.00,,---,0.00,VWS V14.01,2013-06-11 23:45:00,
2013-06-11 19:48:00,77.7,26.4,29.59,NW,314,0.0,0.0,15,0.00,,---,0.00,VWS V14.01,2013-06-11 23:48:00,
2013-06-11 19:50:00,77.5,26.3,29.59,SSE,160,0.0,2.2,15,0.00,,---,0.00,VWS V14.01,2013-06-11 23:50:00,
2013-06-11 19:51:00,77.5,26.3,29.59,South,190,0.0,2.2,15,0.00,,---,0.00,VWS V14.01,2013-06-11 23:51:00,
2013-06-11 19:53:00,77.5,26.3,29.59,NNW,327,0.0,0.0,15,0.00,,---,0.00,VWS V14.01,2013-06-11 23:53:00,
2013-06-11 19:55:00,77.4,26.1,29.59,NNE,32,0.0,0.0,15,0.00,,---,0.00,VWS V14.01,2013-06-11 23:55:00,
2013-06-11 19:56:00,77.4,26.1,29.59,NW,309,0.0,0.0,15,0.00,,---,0.00,VWS V14.01,2013-06-11 23:56:00,
2013-06-11 19:58:00,77.4,26.1,29.59,NW,309,0.0,0.0,15,0.00,,---,0.00,VWS V14.01,2013-06-11 23:58:00,
2013-06-11 20:00:00,77.4,26.1,29.59,NW,311,0.0,0.0,15,0.00,,---,0.00,VWS V14.01,2013-06-12 00:00:00,
2013-06-11 20:01:00,77.4,26.1,29.59,NE,52,0.0,0.0,15,0.00,,---,0.00,VWS V14.01,2013-06-12 00:01:00,
2013-06-11 20:03:00,77.2,26.0,29.59,NE,52,0.0,0.0,15,0.00,,---,0.00,VWS V14.01,2013-06-12 00:03:00,
2013-06-11 20:05:00,77.0,25.9,29.59,NE,52,0.0,0.0,15,0.00,,---,0.00,VWS V14.01,2013-06-12 00:05:00,
2013-06-11 20:06:00,77.0,25.9,29.59,NE,52,0.0,0.0,15,0.00,,---,0.00,VWS V14.01,2013-06-12 00:06:00,
2013-06-11 20:08:00,77.0,25.9,29.59,NE,52,0.0,0.0,15,0.00,,---,0.00,VWS V14.01,2013-06-12 00:08:00,
2013-06-11 20:10:00,77.0,25.9,29.59,North,0,0.0,0.0,15,0.00,,---,0.00,VWS V14.01,2013-06-12 00:10:00,
2013-06-11 20:11:00,77.0,25.9,29.59,West,271,3.6,3.6,15,0.00,,---,0.00,VWS V14.01,2013-06-12 00:11:00,
2013-06-11 20:13:00,77.0,25.9,29.59,West,271,3.6,3.6,15,0.00,,---,0.00,VWS V14.01,2013-06-12 00:13:00,
2013-06-11 20:16:00,76.8,25.7,29.59,West,271,0.0,0.0,15,0.00,,---,0.00,VWS V14.01,2013-06-12 00:16:00,
2013-06-11 20:17:00,76.8,25.7,29.59,ENE,75,0.0,2.7,15,0.00,,---,0.00,VWS V14.01,2013-06-12 00:17:00,
2013-06-11 20:19:00,76.8,30.1,29.59,ENE,75,0.0,0.0,18,0.00,,---,0.00,VWS V14.01,2013-06-12 00:19:00,
2013-06-11 20:21:00,76.6,30.0,29.59,West,259,2.7,2.7,18,0.00,,---,0.00,VWS V14.01,2013-06-12 00:21:00,
2013-06-11 20:22:00,76.6,30.0,29.59,West,259,0.0,2.7,18,0.00,,---,0.00,VWS V14.01,2013-06-12 00:22:00,
2013-06-11 20:24:00,76.5,32.5,29.59,West,259,0.0,0.0,20,0.00,,---,0.00,VWS V14.01,2013-06-12 00:24:00,
2013-06-11 20:26:00,76.3,32.3,29.59,SE,144,0.0,2.7,20,0.00,,---,0.00,VWS V14.01,2013-06-12 00:26:00,
2013-06-11 20:27:00,76.3,29.7,29.59,SE,144,0.0,2.7,18,0.00,,---,0.00,VWS V14.01,2013-06-12 00:27:00,
2013-06-11 20:29:00,76.3,33.5,29.59,SW,217,0.0,0.0,21,0.00,,---,0.00,VWS V14.01,2013-06-12 00:29:00,
2013-06-11 20:32:00,76.3,32.3,29.59,ESE,118,0.0,2.7,20,0.00,,---,0.00,VWS V14.01,2013-06-12 00:32:00,
2013-06-11 20:34:00,76.3,32.3,29.59,ESE,118,0.0,0.0,20,0.00,,---,0.00,VWS V14.01,2013-06-12 00:34:00,
2013-06-11 20:37:00,76.3,29.7,29.59,SW,222,0.0,4.9,18,0.00,,---,0.00,VWS V14.01,2013-06-12 00:37:00,
2013-06-11 20:38:00,76.3,32.3,29.59,SW,222,0.0,0.0,20,0.00,,---,0.00,VWS V14.01,2013-06-12 00:38:00,
2013-06-11 20:39:00,76.3,33.5,29.59,ENE,66,2.2,4.0,21,0.00,,---,0.00,VWS V14.01,2013-06-12 00:39:00,
2013-06-11 20:42:00,76.1,33.4,29.59,NW,316,0.0,0.0,21,0.00,,---,0.00,VWS V14.01,2013-06-12 00:42:00,
2013-06-11 20:43:00,76.1,33.4,29.59,NW,314,0.0,0.0,21,0.00,,---,0.00,VWS V14.01,2013-06-12 00:43:00,
2013-06-11 20:44:00,75.9,32.0,29.59,WNW,288,2.7,3.1,20,0.00,,---,0.00,VWS V14.01,2013-06-12 00:44:00,
2013-06-11 20:47:00,75.9,32.0,29.59,SW,234,0.0,3.6,20,0.00,,---,0.00,VWS V14.01,2013-06-12 00:47:00,
2013-06-11 20:48:00,75.9,32.0,29.59,SW,234,0.0,2.2,20,0.00,,---,0.00,VWS V14.01,2013-06-12 00:48:00,
2013-06-11 20:49:00,75.9,32.0,29.59,SW,234,0.0,0.0,20,0.00,,---,0.00,VWS V14.01,2013-06-12 00:49:00,
2013-06-11 20:52:00,75.9,32.0,29.59,SW,234,0.0,0.0,20,0.00,,---,0.00,VWS V14.01,2013-06-12 00:52:00,
2013-06-11 20:53:00,75.9,32.0,29.59,NW,316,3.1,3.1,20,0.00,,---,0.00,VWS V14.01,2013-06-12 00:53:00,
2013-06-11 20:55:00,75.9,32.0,29.59,NW,316,2.7,2.7,20,0.00,,---,0.00,VWS V14.01,2013-06-12 00:55:00,
2013-06-11 20:57:00,75.7,33.1,29.59,NW,316,0.0,0.0,21,0.00,,---,0.00,VWS V14.01,2013-06-12 00:57:00,
2013-06-11 20:58:00,75.7,33.1,29.59,NW,316,0.0,0.0,21,0.00,,---,0.00,VWS V14.01,2013-06-12 00:58:00,
2013-06-11 20:59:00,75.7,33.1,29.59,ENE,62,0.0,0.0,21,0.00,,---,0.00,VWS V14.01,2013-06-12 00:59:00,
2013-06-11 21:00:00,75.7,33.1,29.59,ENE,62,0.0,0.0,21,0.00,,---,0.00,VWS V14.01,2013-06-12 01:00:00,
2013-06-11 21:02:00,75.6,32.9,29.59,SSW,207,0.0,0.0,21,0.00,,---,0.00,VWS V14.01,2013-06-12 01:02:00,
2013-06-11 21:03:00,75.4,32.8,29.59,SSW,207,0.0,0.0,21,0.00,,---,0.00,VWS V14.01,2013-06-12 01:03:00,
2013-06-11 21:04:00,75.4,32.8,29.59,SSW,202,4.9,4.9,21,0.00,,---,0.00,VWS V14.01,2013-06-12 01:04:00,
2013-06-11 21:05:00,75.4,32.8,29.59,SSW,205,0.0,4.9,21,0.00,,---,0.00,VWS V14.01,2013-06-12 01:05:00,
2013-06-11 21:07:00,75.2,32.6,29.59,SSW,205,0.0,0.0,21,0.00,,---,0.00,VWS V14.01,2013-06-12 01:07:00,
2013-06-11 21:08:00,75.2,32.6,29.59,SSW,205,0.0,0.0,21,0.00,,---,0.00,VWS V14.01,2013-06-12 01:08:00,
2013-06-11 21:09:00,75.0,32.5,29.59,SSW,205,0.0,0.0,21,0.00,,---,0.00,VWS V14.01,2013-06-12 01:09:00,
2013-06-11 21:10:00,75.0,32.5,29.59,SSW,205,0.0,0.0,21,0.00,,---,0.00,VWS V14.01,2013-06-12 01:10:00,
2013-06-11 21:13:00,75.0,32.5,29.59,SSW,205,0.0,0.0,21,0.00,,---,0.00,VWS V14.01,2013-06-12 01:13:00,
2013-06-11 21:14:00,74.8,32.3,29.59,SSW,205,0.0,0.0,21,0.00,,---,0.00,VWS V14.01,2013-06-12 01:14:00,
2013-06-11 21:15:00,74.8,33.5,29.59,SSW,205,0.0,0.0,22,0.00,,---,0.00,VWS V14.01,2013-06-12 01:15:00,
2013-06-11 21:18:00,74.7,33.3,29.59,SSW,205,0.0,0.0,22,0.00,,---,0.00,VWS V14.01,2013-06-12 01:18:00,
2013-06-11 21:19:00,74.7,33.3,29.59,SSW,205,0.0,0.0,22,0.00,,---,0.00,VWS V14.01,2013-06-12 01:19:00,
2013-06-11 21:20:00,74.5,33.2,29.59,SSW,205,0.0,0.0,22,0.00,,---,0.00,VWS V14.01,2013-06-12 01:20:00,
2013-06-11 21:23:00,74.5,33.2,29.62,SSW,205,0.0,0.0,22,0.00,,---,0.00,VWS V14.01,2013-06-12 01:23:00,
2013-06-11 21:24:00,74.5,33.2,29.62,SSW,205,0.0,0.0,22,0.00,,---,0.00,VWS V14.01,2013-06-12 01:24:00,
2013-06-11 21:25:00,74.3,33.0,29.62,SSW,205,0.0,0.0,22,0.00,,---,0.00,VWS V14.01,2013-06-12 01:25:00,
2013-06-11 21:28:00,74.1,34.0,29.62,SSW,205,0.0,0.0,23,0.00,,---,0.00,VWS V14.01,2013-06-12 01:28:00,
2013-06-11 21:29:00,74.1,34.0,29.62,SSW,205,0.0,0.0,23,0.00,,---,0.00,VWS V14.01,2013-06-12 01:29:00,
2013-06-11 21:30:00,74.1,34.0,29.62,SSW,205,0.0,0.0,23,0.00,,---,0.00,VWS V14.01,2013-06-12 01:30:00,
2013-06-11 21:33:00,73.8,34.8,29.62,SSW,205,0.0,0.0,24,0.00,,---,0.00,VWS V14.01,2013-06-12 01:33:00,
2013-06-11 21:34:00,73.8,34.8,29.62,SSW,205,0.0,0.0,24,0.00,,---,0.00,VWS V14.01,2013-06-12 01:34:00,
2013-06-11 21:35:00,73.8,34.8,29.62,SSW,205,0.0,0.0,24,0.00,,---,0.00,VWS V14.01,2013-06-12 01:35:00,
2013-06-11 21:38:00,73.8,34.8,29.62,SSW,205,2.7,3.1,24,0.00,,---,0.00,VWS V14.01,2013-06-12 01:38:00,
2013-06-11 21:39:00,73.8,34.8,29.62,North,11,3.1,3.1,24,0.00,,---,0.00,VWS V14.01,2013-06-12 01:39:00,
2013-06-11 21:40:00,73.8,35.8,29.62,North,11,0.0,3.1,25,0.00,,---,0.00,VWS V14.01,2013-06-12 01:40:00,
2013-06-11 21:43:00,73.6,35.6,29.62,WSW,249,3.1,4.0,25,0.00,,---,0.00,VWS V14.01,2013-06-12 01:43:00,
2013-06-11 21:45:00,73.6,35.6,29.62,WSW,249,0.0,0.0,25,0.00,,---,0.00,VWS V14.01,2013-06-12 01:45:00,
2013-06-11 21:48:00,73.4,35.5,29.62,WSW,249,0.0,0.0,25,0.00,,---,0.00,VWS V14.01,2013-06-12 01:48:00,
2013-06-11 21:50:00,73.4,35.5,29.62,WSW,249,0.0,0.0,25,0.00,,---,0.00,VWS V14.01,2013-06-12 01:50:00,
2013-06-11 21:54:00,73.2,36.3,29.62,WSW,251,0.0,0.0,26,0.00,,---,0.00,VWS V14.01,2013-06-12 01:54:00,
2013-06-11 21:55:00,73.2,36.3,29.62,WSW,251,0.0,0.0,26,0.00,,---,0.00,VWS V14.01,2013-06-12 01:55:00,
2013-06-11 21:59:00,73.0,37.1,29.62,WSW,251,0.0,0.0,27,0.00,,---,0.00,VWS V14.01,2013-06-12 01:59:00,
2013-06-11 22:00:00,73.0,37.1,29.62,WSW,251,0.0,0.0,27,0.00,,---,0.00,VWS V14.01,2013-06-12 02:00:00,
2013-06-11 22:01:00,72.9,37.0,29.62,WSW,251,0.0,0.0,27,0.00,,---,0.00,VWS V14.01,2013-06-12 02:01:00,
2013-06-11 22:04:00,72.9,37.0,29.62,WSW,251,0.0,0.0,27,0.00,,---,0.00,VWS V14.01,2013-06-12 02:04:00,
2013-06-11 22:05:00,72.9,37.0,29.62,WSW,251,0.0,0.0,27,0.00,,---,0.00,VWS V14.01,2013-06-12 02:05:00,
2013-06-11 22:06:00,72.9,37.0,29.62,WSW,251,0.0,0.0,27,0.00,,---,0.00,VWS V14.01,2013-06-12 02:06:00,
2013-06-11 22:09:00,72.9,37.9,29.62,WSW,251,0.0,0.0,28,0.00,,---,0.00,VWS V14.01,2013-06-12 02:09:00,
2013-06-11 22:10:00,72.9,37.9,29.62,WSW,251,0.0,0.0,28,0.00,,---,0.00,VWS V14.01,2013-06-12 02:10:00,
2013-06-11 22:11:00,72.7,37.7,29.62,WSW,251,0.0,0.0,28,0.00,,---,0.00,VWS V14.01,2013-06-12 02:11:00,
2013-06-11 22:12:00,72.7,38.6,29.62,WSW,251,0.0,0.0,29,0.00,,---,0.00,VWS V14.01,2013-06-12 02:12:00,
2013-06-11 22:14:00,72.7,38.6,29.62,WSW,251,0.0,0.0,29,0.00,,---,0.00,VWS V14.01,2013-06-12 02:14:00,
2013-06-11 22:15:00,72.7,38.6,29.62,WSW,251,0.0,0.0,29,0.00,,---,0.00,VWS V14.01,2013-06-12 02:15:00,
2013-06-11 22:16:00,72.5,39.3,29.62,WSW,251,0.0,0.0,30,0.00,,---,0.00,VWS V14.01,2013-06-12 02:16:00,
2013-06-11 22:17:00,72.5,39.3,29.62,WSW,251,0.0,0.0,30,0.00,,---,0.00,VWS V14.01,2013-06-12 02:17:00,
2013-06-11 22:19:00,72.3,39.2,29.62,WSW,251,0.0,0.0,30,0.00,,---,0.00,VWS V14.01,2013-06-12 02:19:00,
2013-06-11 22:20:00,72.3,39.2,29.62,WSW,251,0.0,0.0,30,0.00,,---,0.00,VWS V14.01,2013-06-12 02:20:00,
2013-06-11 22:21:00,72.3,40.0,29.62,WSW,251,0.0,0.0,31,0.00,,---,0.00,VWS V14.01,2013-06-12 02:21:00,
2013-06-11 22:22:00,72.3,40.0,29.62,WSW,251,0.0,0.0,31,0.00,,---,0.00,VWS V14.01,2013-06-12 02:22:00,
2013-06-11 22:24:00,72.1,39.9,29.62,WSW,251,0.0,0.0,31,0.00,,---,0.00,VWS V14.01,2013-06-12 02:24:00,
2013-06-11 22:25:00,72.1,39.9,29.62,SW,216,2.7,2.7,31,0.00,,---,0.00,VWS V14.01,2013-06-12 02:25:00,
2013-06-11 22:26:00,72.1,39.9,29.62,SW,216,0.0,0.0,31,0.00,,---,0.00,VWS V14.01,2013-06-12 02:26:00,
2013-06-11 22:27:00,72.1,39.9,29.62,SW,216,0.0,0.0,31,0.00,,---,0.00,VWS V14.01,2013-06-12 02:27:00,
2013-06-11 22:29:00,72.1,40.7,29.62,SW,216,0.0,0.0,32,0.00,,---,0.00,VWS V14.01,2013-06-12 02:29:00,
2013-06-11 22:30:00,72.1,40.7,29.62,SW,216,0.0,0.0,32,0.00,,---,0.00,VWS V14.01,2013-06-12 02:30:00,
2013-06-11 22:32:00,72.1,40.7,29.62,SW,216,0.0,0.0,32,0.00,,---,0.00,VWS V14.01,2013-06-12 02:32:00,
2013-06-11 22:34:00,72.0,40.5,29.62,SW,216,0.0,0.0,32,0.00,,---,0.00,VWS V14.01,2013-06-12 02:34:00,
2013-06-11 22:36:00,71.8,40.4,29.65,SW,216,0.0,0.0,32,0.00,,---,0.00,VWS V14.01,2013-06-12 02:36:00,
2013-06-11 22:37:00,71.8,40.4,29.65,SW,216,0.0,0.0,32,0.00,,---,0.00,VWS V14.01,2013-06-12 02:37:00,
2013-06-11 22:39:00,71.8,40.4,29.65,SSW,210,0.0,0.0,32,0.00,,---,0.00,VWS V14.01,2013-06-12 02:39:00,
2013-06-11 22:41:00,71.6,40.2,29.65,SSW,210,0.0,0.0,32,0.00,,---,0.00,VWS V14.01,2013-06-12 02:41:00,
2013-06-11 22:42:00,71.6,40.2,29.65,SSW,210,0.0,0.0,32,0.00,,---,0.00,VWS V14.01,2013-06-12 02:42:00,
2013-06-11 22:43:00,71.6,40.2,29.65,SSW,210,0.0,0.0,32,0.00,,---,0.00,VWS V14.01,2013-06-12 02:43:00,
2013-06-11 22:44:00,71.6,41.0,29.65,SSW,210,0.0,0.0,33,0.00,,---,0.00,VWS V14.01,2013-06-12 02:44:00,
2013-06-11 22:47:00,71.6,41.0,29.65,SSW,210,0.0,0.0,33,0.00,,---,0.00,VWS V14.01,2013-06-12 02:47:00,
2013-06-11 22:48:00,71.6,41.0,29.65,SSW,210,0.0,0.0,33,0.00,,---,0.00,VWS V14.01,2013-06-12 02:48:00,
2013-06-11 22:50:00,71.6,41.0,29.65,SSW,211,0.0,0.0,33,0.00,,---,0.00,VWS V14.01,2013-06-12 02:50:00,
2013-06-11 22:52:00,71.6,41.0,29.65,SW,217,2.7,2.7,33,0.00,,---,0.00,VWS V14.01,2013-06-12 02:52:00,
2013-06-11 22:53:00,71.6,41.0,29.65,WSW,244,2.7,3.6,33,0.00,,---,0.00,VWS V14.01,2013-06-12 02:53:00,
2013-06-11 22:55:00,71.4,41.6,29.65,WSW,244,0.0,0.0,34,0.00,,---,0.00,VWS V14.01,2013-06-12 02:55:00,
2013-06-11 22:57:00,71.6,41.8,29.65,NW,320,0.0,0.0,34,0.00,,---,0.00,VWS V14.01,2013-06-12 02:57:00,
2013-06-11 22:58:00,71.4,41.6,29.65,WNW,299,3.6,3.6,34,0.00,,---,0.00,VWS V14.01,2013-06-12 02:58:00,
2013-06-11 23:00:00,71.4,41.6,29.65,NW,322,0.0,0.0,34,0.00,,---,0.00,VWS V14.01,2013-06-12 03:00:00,
2013-06-11 23:02:00,71.4,41.6,29.65,NW,322,0.0,0.0,34,0.00,,---,0.00,VWS V14.01,2013-06-12 03:02:00,
2013-06-11 23:03:00,71.2,41.5,29.65,NW,322,0.0,0.0,34,0.00,,---,0.00,VWS V14.01,2013-06-12 03:03:00,
2013-06-11 23:05:00,71.2,42.2,29.65,West,265,0.0,0.0,35,0.00,,---,0.00,VWS V14.01,2013-06-12 03:05:00,
2013-06-11 23:07:00,71.2,42.2,29.65,North,353,4.0,4.0,35,0.00,,---,0.00,VWS V14.01,2013-06-12 03:07:00,
2013-06-11 23:08:00,71.2,41.5,29.65,North,3,0.0,2.2,34,0.00,,---,0.00,VWS V14.01,2013-06-12 03:08:00,
2013-06-11 23:09:00,71.2,41.5,29.65,North,3,0.0,2.2,34,0.00,,---,0.00,VWS V14.01,2013-06-12 03:09:00,
2013-06-11 23:11:00,71.1,41.3,29.65,North,3,0.0,0.0,34,0.00,,---,0.00,VWS V14.01,2013-06-12 03:11:00,
2013-06-11 23:12:00,71.2,40.7,29.65,WNW,295,3.1,3.1,33,0.00,,---,0.00,VWS V14.01,2013-06-12 03:12:00,
2013-06-11 23:13:00,71.2,40.7,29.65,NNW,329,3.1,3.6,33,0.00,,---,0.00,VWS V14.01,2013-06-12 03:13:00,
2013-06-11 23:14:00,71.2,40.7,29.65,NNE,26,2.2,3.6,33,0.00,,---,0.00,VWS V14.01,2013-06-12 03:14:00,
2013-06-11 23:16:00,71.2,40.7,29.65,WSW,253,0.0,2.2,33,0.00,,---,0.00,VWS V14.01,2013-06-12 03:16:00,
2013-06-11 23:17:00,71.2,40.7,29.65,WNW,294,2.2,2.7,33,0.00,,---,0.00,VWS V14.01,2013-06-12 03:17:00,
2013-06-11 23:18:00,71.2,40.7,29.65,WNW,294,2.2,2.7,33,0.00,,---,0.00,VWS V14.01,2013-06-12 03:18:00,
2013-06-11 23:19:00,71.2,40.7,29.65,WNW,294,0.0,0.0,33,0.00,,---,0.00,VWS V14.01,2013-06-12 03:19:00,
2013-06-11 23:21:00,71.4,40.8,29.65,NW,313,0.0,0.0,33,0.00,,---,0.00,VWS V14.01,2013-06-12 03:21:00,
2013-06-11 23:22:00,71.2,40.7,29.65,NW,313,0.0,0.0,33,0.00,,---,0.00,VWS V14.01,2013-06-12 03:22:00,
2013-06-11 23:23:00,71.2,40.7,29.65,NW,313,0.0,0.0,33,0.00,,---,0.00,VWS V14.01,2013-06-12 03:23:00,
2013-06-11 23:24:00,71.2,40.7,29.65,NW,313,0.0,0.0,33,0.00,,---,0.00,VWS V14.01,2013-06-12 03:24:00,
2013-06-11 23:27:00,71.2,40.7,29.65,NW,313,0.0,0.0,33,0.00,,---,0.00,VWS V14.01,2013-06-12 03:27:00,
2013-06-11 23:28:00,71.1,40.5,29.65,NW,313,0.0,0.0,33,0.00,,---,0.00,VWS V14.01,2013-06-12 03:28:00,
2013-06-11 23:29:00,71.1,40.5,29.65,NW,313,0.0,0.0,33,0.00,,---,0.00,VWS V14.01,2013-06-12 03:29:00,
2013-06-11 23:32:00,70.9,40.4,29.65,NW,313,0.0,0.0,33,0.00,,---,0.00,VWS V14.01,2013-06-12 03:32:00,
2013-06-11 23:33:00,70.9,41.1,29.65,NW,313,0.0,0.0,34,0.00,,---,0.00,VWS V14.01,2013-06-12 03:33:00,
2013-06-11 23:34:00,70.9,41.1,29.65,NW,313,0.0,0.0,34,0.00,,---,0.00,VWS V14.01,2013-06-12 03:34:00,
2013-06-11 23:37:00,70.9,40.4,29.65,NW,313,0.0,0.0,33,0.00,,---,0.00,VWS V14.01,2013-06-12 03:37:00,
2013-06-11 23:38:00,70.9,40.4,29.65,NW,313,0.0,0.0,33,0.00,,---,0.00,VWS V14.01,2013-06-12 03:38:00,
2013-06-11 23:39:00,70.7,40.2,29.65,NW,313,0.0,0.0,33,0.00,,---,0.00,VWS V14.01,2013-06-12 03:39:00,
2013-06-11 23:42:00,70.7,40.2,29.65,WSW,239,0.0,0.0,33,0.00,,---,0.00,VWS V14.01,2013-06-12 03:42:00,
2013-06-11 23:43:00,70.7,40.2,29.65,WSW,239,0.0,0.0,33,0.00,,---,0.00,VWS V14.01,2013-06-12 03:43:00,
2013-06-11 23:44:00,70.7,40.2,29.65,WSW,239,0.0,0.0,33,0.00,,---,0.00,VWS V14.01,2013-06-12 03:44:00,
2013-06-11 23:45:00,70.7,40.2,29.65,WSW,244,0.0,0.0,33,0.00,,---,0.00,VWS V14.01,2013-06-12 03:45:00,
2013-06-11 23:48:00,70.5,40.1,29.65,WSW,244,0.0,0.0,33,0.00,,---,0.00,VWS V14.01,2013-06-12 03:48:00,
2013-06-11 23:49:00,70.5,40.1,29.65,WSW,244,0.0,0.0,33,0.00,,---,0.00,VWS V14.01,2013-06-12 03:49:00,
2013-06-11 23:50:00,70.5,40.1,29.65,WSW,244,0.0,0.0,33,0.00,,---,0.00,VWS V14.01,2013-06-12 03:50:00,
2013-06-11 23:53:00,70.5,40.1,29.65,WSW,244,0.0,0.0,33,0.00,,---,0.00,VWS V14.01,2013-06-12 03:53:00,
2013-06-11 23:54:00,70.5,40.1,29.65,WSW,244,0.0,0.0,33,0.00,,---,0.00,VWS V14.01,2013-06-12 03:54:00,
2013-06-11 23:55:00,70.5,40.1,29.65,WSW,256,0.0,3.1,33,0.00,,---,0.00,VWS V14.01,2013-06-12 03:55:00,
2013-06-11 23:58:00,70.3,39.9,29.65,WSW,256,0.0,0.0,33,0.00,,---,0.00,VWS V14.01,2013-06-12 03:58:00,
2013-06-11 23:59:00,70.3,39.9,29.65,WSW,256,0.0,0.0,33,0.00,,---,0.00,VWS V14.01,2013-06-12 03:59:00,